OCN134 EDDF-HKMO
Flight info
| Callsign | OCN134 |
|---|---|
| Flight time | 9h 29m |
| Altitude | 37000 |
| Route | CINDY8S/18 CINDY Z74 LAMPU DCT NOMBO Y161 MAH DCT VAVOR DCT RADIZ DCT NEMEK DCT GLOMY DCT PETAK DCT DIMIS UL604 SALUN N705 BOPIX N710 TAKRI P751 LXR M999 ELELI/N0464F390 M999 JDW G650 RASKA/N0469F380 G650 ASM/N0467F400 G650 KONET M308 GETOL/N0463F390 T129 ALEMU/N0461F400 UN301 IBNOK IBNOK3A |
| Aircraft | A333/H-SDE2E3FGHIJ3J4J5LM1OP2RWXYZ/LB2D1 |
Departure
| Time | 2026-05-04 19:37 |
|---|---|
| Airport | Frankfurt Main Airport (EDDF) |
Arrival
| Time | 2026-05-05 05:06 |
|---|---|
| Airport | Moi International Airport (HKMO) |
| Time | Latitude | Longitude | Altitude | Speed | Heading |
|---|---|---|---|---|---|
| 2026-05-04 18:54 | 50.04938 | 8.58179 | 365 ft | 0 kts | 340° |
| 2026-05-04 19:20 | 50.04915 | 8.58192 | 369 ft | 4 kts | 340° |
| 2026-05-04 19:20 | 50.04890 | 8.58206 | 368 ft | 4 kts | 339° |
| 2026-05-04 19:21 | 50.04868 | 8.58219 | 370 ft | 4 kts | 327° |
| 2026-05-04 19:21 | 50.04854 | 8.58247 | 366 ft | 4 kts | 272° |
| 2026-05-04 19:21 | 50.04858 | 8.58287 | 363 ft | 4 kts | 249° |
| 2026-05-04 19:21 | 50.04867 | 8.58323 | 370 ft | 2 kts | 250° |
| 2026-05-04 19:22 | 50.04868 | 8.58325 | 369 ft | 1 kts | 250° |
| 2026-05-04 19:25 | 50.04863 | 8.58306 | 370 ft | 10 kts | 250° |
| 2026-05-04 19:25 | 50.04824 | 8.58141 | 371 ft | 17 kts | 250° |
| 2026-05-04 19:25 | 50.04784 | 8.58000 | 366 ft | 13 kts | 233° |
| 2026-05-04 19:25 | 50.04718 | 8.57904 | 369 ft | 13 kts | 224° |
| 2026-05-04 19:26 | 50.04680 | 8.57780 | 368 ft | 13 kts | 249° |
| 2026-05-04 19:26 | 50.04643 | 8.57632 | 366 ft | 18 kts | 249° |
| 2026-05-04 19:26 | 50.04600 | 8.57449 | 367 ft | 18 kts | 250° |
| 2026-05-04 19:26 | 50.04557 | 8.57266 | 369 ft | 18 kts | 250° |
| 2026-05-04 19:27 | 50.04514 | 8.57087 | 364 ft | 17 kts | 248° |
| 2026-05-04 19:27 | 50.04473 | 8.56918 | 371 ft | 15 kts | 249° |
| 2026-05-04 19:27 | 50.04436 | 8.56763 | 367 ft | 16 kts | 249° |
| 2026-05-04 19:27 | 50.04397 | 8.56600 | 367 ft | 16 kts | 250° |
| 2026-05-04 19:28 | 50.04357 | 8.56432 | 363 ft | 17 kts | 250° |
| 2026-05-04 19:28 | 50.04316 | 8.56260 | 365 ft | 17 kts | 250° |
| 2026-05-04 19:28 | 50.04289 | 8.56144 | 363 ft | 9 kts | 249° |
| 2026-05-04 19:28 | 50.04267 | 8.56052 | 364 ft | 9 kts | 249° |
| 2026-05-04 19:29 | 50.04243 | 8.55954 | 362 ft | 10 kts | 249° |
| 2026-05-04 19:29 | 50.04212 | 8.55826 | 360 ft | 17 kts | 249° |
| 2026-05-04 19:29 | 50.04167 | 8.55639 | 365 ft | 19 kts | 249° |
| 2026-05-04 19:29 | 50.04122 | 8.55448 | 363 ft | 19 kts | 250° |
| 2026-05-04 19:30 | 50.04078 | 8.55266 | 366 ft | 17 kts | 249° |
| 2026-05-04 19:30 | 50.04037 | 8.55094 | 363 ft | 17 kts | 249° |
| 2026-05-04 19:30 | 50.03997 | 8.54924 | 362 ft | 17 kts | 250° |
| 2026-05-04 19:30 | 50.03954 | 8.54744 | 358 ft | 18 kts | 250° |
| 2026-05-04 19:31 | 50.03908 | 8.54554 | 360 ft | 19 kts | 250° |
| 2026-05-04 19:31 | 50.03855 | 8.54362 | 358 ft | 20 kts | 237° |
| 2026-05-04 19:31 | 50.03792 | 8.54188 | 359 ft | 18 kts | 249° |
| 2026-05-04 19:31 | 50.03747 | 8.54002 | 355 ft | 19 kts | 250° |
| 2026-05-04 19:32 | 50.03703 | 8.53816 | 350 ft | 16 kts | 249° |
| 2026-05-04 19:32 | 50.03663 | 8.53649 | 353 ft | 17 kts | 250° |
| 2026-05-04 19:32 | 50.03619 | 8.53479 | 351 ft | 17 kts | 249° |
| 2026-05-04 19:32 | 50.03577 | 8.53305 | 354 ft | 17 kts | 249° |
| 2026-05-04 19:33 | 50.03535 | 8.53127 | 347 ft | 16 kts | 250° |
| 2026-05-04 19:33 | 50.03499 | 8.52980 | 335 ft | 14 kts | 249° |
| 2026-05-04 19:33 | 50.03465 | 8.52851 | 337 ft | 11 kts | 246° |
| 2026-05-04 19:33 | 50.03438 | 8.52747 | 334 ft | 6 kts | 249° |
| 2026-05-04 19:34 | 50.03435 | 8.52735 | 334 ft | 0 kts | 249° |
| 2026-05-04 19:35 | 50.03429 | 8.52710 | 334 ft | 7 kts | 249° |
| 2026-05-04 19:36 | 50.03401 | 8.52630 | 334 ft | 10 kts | 226° |
| 2026-05-04 19:36 | 50.03297 | 8.52594 | 335 ft | 26 kts | 180° |
| 2026-05-04 19:36 | 50.02934 | 8.52598 | 339 ft | 80 kts | 179° |
| 2026-05-04 19:36 | 50.02189 | 8.52604 | 336 ft | 132 kts | 180° |
| 2026-05-04 19:37 | 50.01105 | 8.52616 | 362 ft | 177 kts | 181° |
| 2026-05-04 19:37 | 49.99847 | 8.52628 | 912 ft | 183 kts | 181° |
| 2026-05-04 19:37 | 49.98590 | 8.52634 | 1714 ft | 179 kts | 180° |
| 2026-05-04 19:37 | 49.97315 | 8.52773 | 2235 ft | 195 kts | 166° |
| 2026-05-04 19:38 | 49.96141 | 8.53963 | 2462 ft | 216 kts | 128° |
| 2026-05-04 19:38 | 49.95308 | 8.56007 | 2757 ft | 234 kts | 118° |
| 2026-05-04 19:38 | 49.94523 | 8.58311 | 3169 ft | 246 kts | 115° |
| 2026-05-04 19:38 | 49.94037 | 8.60867 | 3782 ft | 251 kts | 98° |
| 2026-05-04 19:39 | 49.93880 | 8.63623 | 4282 ft | 261 kts | 94° |
| 2026-05-04 19:39 | 49.93778 | 8.66467 | 4885 ft | 266 kts | 97° |
| 2026-05-04 19:39 | 49.93303 | 8.69229 | 5512 ft | 267 kts | 120° |
| 2026-05-04 19:39 | 49.92102 | 8.71389 | 6186 ft | 266 kts | 142° |
| 2026-05-04 19:40 | 49.90623 | 8.73109 | 6874 ft | 267 kts | 147° |
| 2026-05-04 19:40 | 49.89117 | 8.74822 | 7528 ft | 271 kts | 141° |
| 2026-05-04 19:40 | 49.87883 | 8.77070 | 8194 ft | 278 kts | 126° |
| 2026-05-04 19:40 | 49.86884 | 8.79664 | 8865 ft | 282 kts | 123° |
| 2026-05-04 19:41 | 49.85925 | 8.82339 | 9538 ft | 286 kts | 122° |
| 2026-05-04 19:41 | 49.84959 | 8.85044 | 10160 ft | 290 kts | 122° |
| 2026-05-04 19:41 | 49.83951 | 8.87846 | 10424 ft | 306 kts | 122° |
| 2026-05-04 19:41 | 49.82878 | 8.90808 | 10647 ft | 324 kts | 122° |
| 2026-05-04 19:42 | 49.81746 | 8.93927 | 10849 ft | 341 kts | 122° |
| 2026-05-04 19:42 | 49.80554 | 8.97206 | 10948 ft | 358 kts | 122° |
| 2026-05-04 19:42 | 49.79325 | 9.00585 | 10994 ft | 361 kts | 122° |
| 2026-05-04 19:42 | 49.78089 | 9.03985 | 11425 ft | 364 kts | 122° |
| 2026-05-04 19:43 | 49.76867 | 9.07374 | 12096 ft | 365 kts | 120° |
| 2026-05-04 19:43 | 49.75908 | 9.11073 | 12775 ft | 370 kts | 109° |
| 2026-05-04 19:43 | 49.75236 | 9.14933 | 13363 ft | 374 kts | 107° |
| 2026-05-04 19:43 | 49.74350 | 9.18704 | 13910 ft | 374 kts | 121° |
| 2026-05-04 19:44 | 49.72949 | 9.22086 | 14449 ft | 375 kts | 129° |
| 2026-05-04 19:44 | 49.71348 | 9.25205 | 14981 ft | 376 kts | 133° |
| 2026-05-04 19:44 | 49.69617 | 9.28237 | 15514 ft | 378 kts | 135° |
| 2026-05-04 19:44 | 49.67831 | 9.31243 | 16046 ft | 381 kts | 135° |
| 2026-05-04 19:45 | 49.66024 | 9.34270 | 16572 ft | 384 kts | 135° |
| 2026-05-04 19:45 | 49.64219 | 9.37327 | 17096 ft | 387 kts | 135° |
| 2026-05-04 19:45 | 49.62330 | 9.40288 | 17600 ft | 388 kts | 142° |
| 2026-05-04 19:45 | 49.60171 | 9.42803 | 18094 ft | 389 kts | 147° |
| 2026-05-04 19:46 | 49.57913 | 9.45112 | 18554 ft | 391 kts | 150° |
| 2026-05-04 19:46 | 49.55589 | 9.47313 | 18998 ft | 393 kts | 151° |
| 2026-05-04 19:46 | 49.53232 | 9.49457 | 19417 ft | 395 kts | 152° |
| 2026-05-04 19:46 | 49.50844 | 9.51594 | 19838 ft | 398 kts | 152° |
| 2026-05-04 19:47 | 49.48442 | 9.53741 | 20255 ft | 401 kts | 152° |
| 2026-05-04 19:47 | 49.46028 | 9.55908 | 20664 ft | 403 kts | 152° |
| 2026-05-04 19:47 | 49.43598 | 9.58098 | 21075 ft | 406 kts | 152° |
| 2026-05-04 19:47 | 49.41153 | 9.60311 | 21487 ft | 409 kts | 152° |
| 2026-05-04 19:48 | 49.38699 | 9.62536 | 21882 ft | 411 kts | 152° |
| 2026-05-04 19:48 | 49.36233 | 9.64786 | 22262 ft | 414 kts | 150° |
| 2026-05-04 19:48 | 49.33881 | 9.67387 | 22630 ft | 420 kts | 142° |
| 2026-05-04 19:48 | 49.31679 | 9.70368 | 22986 ft | 424 kts | 140° |
| 2026-05-04 19:49 | 49.29532 | 9.73491 | 23356 ft | 428 kts | 139° |
| 2026-05-04 19:49 | 49.27410 | 9.76706 | 23706 ft | 430 kts | 138° |
| 2026-05-04 19:49 | 49.25294 | 9.79969 | 24032 ft | 432 kts | 137° |
| 2026-05-04 19:49 | 49.23178 | 9.83243 | 24378 ft | 433 kts | 137° |
| 2026-05-04 19:50 | 49.21056 | 9.86514 | 24728 ft | 435 kts | 138° |
| 2026-05-04 19:50 | 49.18916 | 9.89794 | 25036 ft | 436 kts | 138° |
| 2026-05-04 19:50 | 49.16761 | 9.93079 | 25361 ft | 438 kts | 138° |
| 2026-05-04 19:50 | 49.14595 | 9.96366 | 25686 ft | 440 kts | 138° |
| 2026-05-04 19:51 | 49.12418 | 9.99659 | 25999 ft | 442 kts | 139° |
| 2026-05-04 19:51 | 49.10226 | 10.02969 | 26312 ft | 443 kts | 139° |
| 2026-05-04 19:51 | 49.08033 | 10.06277 | 26625 ft | 445 kts | 139° |
| 2026-05-04 19:51 | 49.05815 | 10.09591 | 26937 ft | 446 kts | 140° |
| 2026-05-04 19:52 | 49.03563 | 10.12848 | 27240 ft | 448 kts | 140° |
| 2026-05-04 19:52 | 49.01275 | 10.16090 | 27547 ft | 449 kts | 141° |
| 2026-05-04 19:52 | 48.98974 | 10.19321 | 27805 ft | 452 kts | 140° |
| 2026-05-04 19:52 | 48.96655 | 10.22569 | 28096 ft | 453 kts | 141° |
| 2026-05-04 19:53 | 48.94336 | 10.25820 | 28414 ft | 455 kts | 140° |
| 2026-05-04 19:53 | 48.92006 | 10.29094 | 28721 ft | 456 kts | 140° |
| 2026-05-04 19:53 | 48.89672 | 10.32380 | 29021 ft | 458 kts | 140° |
| 2026-05-04 19:53 | 48.87332 | 10.35675 | 29312 ft | 460 kts | 140° |
| 2026-05-04 19:54 | 48.84982 | 10.38982 | 29604 ft | 461 kts | 140° |
| 2026-05-04 19:54 | 48.82637 | 10.42321 | 29885 ft | 464 kts | 139° |
| 2026-05-04 19:54 | 48.81118 | 10.44610 | 30065 ft | 465 kts | 138° |
| 2026-05-04 19:54 | 48.78869 | 10.48152 | 30308 ft | 467 kts | 136° |
| 2026-05-04 19:55 | 48.75920 | 10.52928 | 30582 ft | 470 kts | 136° |
| 2026-05-04 19:55 | 48.73686 | 10.56565 | 30784 ft | 472 kts | 136° |
| 2026-05-04 19:55 | 48.71449 | 10.60191 | 31115 ft | 470 kts | 136° |
| 2026-05-04 19:55 | 48.69214 | 10.63791 | 31485 ft | 468 kts | 136° |
| 2026-05-04 19:56 | 48.67707 | 10.66206 | 31737 ft | 467 kts | 136° |
| 2026-05-04 19:56 | 48.64755 | 10.70914 | 32201 ft | 465 kts | 136° |
| 2026-05-04 19:56 | 48.63250 | 10.73305 | 32436 ft | 464 kts | 136° |
| 2026-05-04 19:56 | 48.61028 | 10.76827 | 32743 ft | 463 kts | 136° |
| 2026-05-04 19:57 | 48.58810 | 10.80339 | 33057 ft | 462 kts | 136° |
| 2026-05-04 19:57 | 48.56603 | 10.83850 | 33363 ft | 460 kts | 136° |
| 2026-05-04 19:57 | 48.54409 | 10.87357 | 33707 ft | 458 kts | 136° |
| 2026-05-04 19:57 | 48.52221 | 10.90855 | 33945 ft | 458 kts | 135° |
| 2026-05-04 19:58 | 48.50031 | 10.94354 | 34110 ft | 459 kts | 136° |
| 2026-05-04 19:58 | 48.47831 | 10.97841 | 34302 ft | 459 kts | 136° |
| 2026-05-04 19:58 | 48.45619 | 11.01309 | 34516 ft | 459 kts | 136° |
| 2026-05-04 19:58 | 48.43400 | 11.04767 | 34690 ft | 459 kts | 136° |
| 2026-05-04 19:59 | 48.41174 | 11.08225 | 34879 ft | 460 kts | 136° |
| 2026-05-04 19:59 | 48.38954 | 11.11670 | 35051 ft | 460 kts | 137° |
| 2026-05-04 19:59 | 48.36752 | 11.15084 | 35239 ft | 460 kts | 137° |
| 2026-05-04 19:59 | 48.34523 | 11.18537 | 35403 ft | 460 kts | 137° |
| 2026-05-04 20:00 | 48.32294 | 11.21989 | 35591 ft | 460 kts | 137° |
| 2026-05-04 20:00 | 48.30062 | 11.25440 | 35750 ft | 461 kts | 137° |
| 2026-05-04 20:00 | 48.27853 | 11.28933 | 35868 ft | 463 kts | 133° |
| 2026-05-04 20:00 | 48.25885 | 11.32772 | 36041 ft | 466 kts | 126° |
| 2026-05-04 20:01 | 48.24139 | 11.36887 | 36208 ft | 467 kts | 124° |
| 2026-05-04 20:01 | 48.22465 | 11.41066 | 36376 ft | 468 kts | 123° |
| 2026-05-04 20:01 | 48.20831 | 11.45278 | 36508 ft | 468 kts | 122° |
| 2026-05-04 20:01 | 48.19207 | 11.49520 | 36673 ft | 469 kts | 122° |
| 2026-05-04 20:02 | 48.17589 | 11.53753 | 36804 ft | 469 kts | 122° |
| 2026-05-04 20:02 | 48.15963 | 11.57989 | 36942 ft | 469 kts | 123° |
| 2026-05-04 20:02 | 48.14332 | 11.62217 | 36961 ft | 469 kts | 123° |
| 2026-05-04 20:03 | 48.11056 | 11.70646 | 36934 ft | 468 kts | 123° |
| 2026-05-04 20:03 | 48.07772 | 11.79044 | 36933 ft | 468 kts | 123° |
| 2026-05-04 20:04 | 48.04480 | 11.87434 | 36927 ft | 468 kts | 123° |
| 2026-05-04 20:04 | 48.01183 | 11.95811 | 36926 ft | 468 kts | 123° |
| 2026-05-04 20:05 | 47.97884 | 12.04172 | 36919 ft | 468 kts | 123° |
| 2026-05-04 20:05 | 47.94512 | 12.12476 | 36918 ft | 466 kts | 128° |
| 2026-05-04 20:06 | 47.90160 | 12.19520 | 36922 ft | 461 kts | 141° |
| 2026-05-04 20:06 | 47.85321 | 12.25767 | 36920 ft | 460 kts | 143° |
| 2026-05-04 20:07 | 47.80394 | 12.31850 | 36924 ft | 460 kts | 143° |
| 2026-05-04 20:07 | 47.75465 | 12.37931 | 36915 ft | 460 kts | 143° |
| 2026-05-04 20:08 | 47.70554 | 12.44021 | 36924 ft | 460 kts | 143° |
| 2026-05-04 20:08 | 47.65676 | 12.50074 | 36924 ft | 460 kts | 143° |
| 2026-05-04 20:09 | 47.60823 | 12.56263 | 36931 ft | 461 kts | 140° |
| 2026-05-04 20:09 | 47.56168 | 12.62826 | 36927 ft | 462 kts | 139° |
| 2026-05-04 20:10 | 47.51554 | 12.69467 | 36952 ft | 463 kts | 139° |
| 2026-05-04 20:10 | 47.46916 | 12.76073 | 36954 ft | 463 kts | 139° |
| 2026-05-04 20:11 | 47.42257 | 12.82638 | 36954 ft | 463 kts | 139° |
| 2026-05-04 20:11 | 47.37585 | 12.89186 | 36952 ft | 463 kts | 139° |
| 2026-05-04 20:12 | 47.32912 | 12.95719 | 36948 ft | 463 kts | 139° |
| 2026-05-04 20:12 | 47.28235 | 13.02245 | 36990 ft | 464 kts | 139° |
| 2026-05-04 20:13 | 47.23546 | 13.08772 | 36986 ft | 464 kts | 139° |
| 2026-05-04 20:13 | 47.18852 | 13.15289 | 37007 ft | 464 kts | 139° |
| 2026-05-04 20:14 | 47.14152 | 13.21796 | 37010 ft | 464 kts | 139° |
| 2026-05-04 20:14 | 47.09448 | 13.28294 | 37016 ft | 465 kts | 139° |
| 2026-05-04 20:15 | 47.04728 | 13.34797 | 37023 ft | 466 kts | 139° |
| 2026-05-04 20:15 | 47.00001 | 13.41295 | 37038 ft | 466 kts | 139° |
| 2026-05-04 20:16 | 46.95266 | 13.47787 | 37039 ft | 466 kts | 139° |
| 2026-05-04 20:16 | 46.90530 | 13.54268 | 37048 ft | 466 kts | 139° |
| 2026-05-04 20:17 | 46.85788 | 13.60733 | 37046 ft | 466 kts | 139° |
| 2026-05-04 20:17 | 46.81046 | 13.67180 | 37046 ft | 466 kts | 139° |
| 2026-05-04 20:18 | 46.76302 | 13.73615 | 37040 ft | 466 kts | 139° |
| 2026-05-04 20:18 | 46.71551 | 13.80041 | 37038 ft | 467 kts | 139° |
| 2026-05-04 20:19 | 46.66781 | 13.86485 | 37047 ft | 468 kts | 139° |
| 2026-05-04 20:19 | 46.62038 | 13.92875 | 37040 ft | 467 kts | 139° |
| 2026-05-04 20:20 | 46.57275 | 13.99275 | 37049 ft | 466 kts | 139° |
| 2026-05-04 20:20 | 46.52514 | 14.05655 | 37045 ft | 466 kts | 139° |
| 2026-05-04 20:21 | 46.47739 | 14.12038 | 37049 ft | 468 kts | 140° |
| 2026-05-04 20:21 | 46.40511 | 14.21666 | 37070 ft | 471 kts | 139° |
| 2026-05-04 20:22 | 46.35696 | 14.28064 | 37073 ft | 469 kts | 139° |
| 2026-05-04 20:22 | 46.30889 | 14.34435 | 37076 ft | 468 kts | 139° |
| 2026-05-04 20:23 | 46.26080 | 14.40791 | 37070 ft | 469 kts | 139° |
| 2026-05-04 20:23 | 46.21253 | 14.47154 | 37075 ft | 470 kts | 139° |
| 2026-05-04 20:24 | 46.16414 | 14.53517 | 37075 ft | 471 kts | 139° |
| 2026-05-04 20:24 | 46.11577 | 14.59863 | 37077 ft | 470 kts | 139° |
| 2026-05-04 20:25 | 46.06734 | 14.66201 | 37077 ft | 470 kts | 140° |
| 2026-05-04 20:25 | 46.01889 | 14.72525 | 37080 ft | 470 kts | 140° |
| 2026-05-04 20:26 | 45.97032 | 14.78848 | 37078 ft | 472 kts | 140° |
| 2026-05-04 20:26 | 45.92190 | 14.85139 | 37072 ft | 472 kts | 140° |
| 2026-05-04 20:27 | 45.87312 | 14.91461 | 37069 ft | 472 kts | 140° |
| 2026-05-04 20:27 | 45.82434 | 14.97765 | 37064 ft | 472 kts | 140° |
| 2026-05-04 20:28 | 45.77553 | 15.04058 | 37071 ft | 472 kts | 140° |
| 2026-05-04 20:28 | 45.72670 | 15.10339 | 37065 ft | 472 kts | 140° |
| 2026-05-04 20:29 | 45.67772 | 15.16623 | 37066 ft | 473 kts | 140° |
| 2026-05-04 20:29 | 45.62867 | 15.22901 | 37058 ft | 473 kts | 140° |
| 2026-05-04 20:30 | 45.57961 | 15.29164 | 37064 ft | 473 kts | 140° |
| 2026-05-04 20:30 | 45.53003 | 15.35337 | 37056 ft | 473 kts | 141° |
| 2026-05-04 20:31 | 45.48005 | 15.41446 | 37056 ft | 473 kts | 141° |
| 2026-05-04 20:31 | 45.42999 | 15.47548 | 37061 ft | 474 kts | 141° |
| 2026-05-04 20:32 | 45.37995 | 15.53649 | 37064 ft | 474 kts | 141° |
| 2026-05-04 20:32 | 45.32995 | 15.59738 | 37066 ft | 473 kts | 141° |
| 2026-05-04 20:33 | 45.27986 | 15.65824 | 37060 ft | 474 kts | 141° |
| 2026-05-04 20:33 | 45.22962 | 15.71913 | 37069 ft | 476 kts | 141° |
| 2026-05-04 20:34 | 45.17927 | 15.78002 | 37066 ft | 476 kts | 141° |
| 2026-05-04 20:34 | 45.12885 | 15.84083 | 37076 ft | 476 kts | 141° |
| 2026-05-04 20:35 | 45.07843 | 15.90150 | 37073 ft | 476 kts | 141° |
| 2026-05-04 20:35 | 45.02793 | 15.96212 | 37072 ft | 477 kts | 141° |
| 2026-05-04 20:36 | 44.97760 | 16.02240 | 37078 ft | 478 kts | 141° |
| 2026-05-04 20:36 | 44.92686 | 16.08301 | 37080 ft | 478 kts | 141° |
| 2026-05-04 20:37 | 44.87609 | 16.14352 | 37084 ft | 478 kts | 141° |
| 2026-05-04 20:37 | 44.82526 | 16.20394 | 37091 ft | 478 kts | 141° |
| 2026-05-04 20:38 | 44.77430 | 16.26439 | 37091 ft | 479 kts | 141° |
| 2026-05-04 20:38 | 44.72325 | 16.32479 | 37098 ft | 479 kts | 141° |
| 2026-05-04 20:39 | 44.67217 | 16.38509 | 37095 ft | 479 kts | 141° |
| 2026-05-04 20:39 | 44.62107 | 16.44526 | 37110 ft | 480 kts | 141° |
| 2026-05-04 20:40 | 44.56982 | 16.50548 | 37101 ft | 481 kts | 141° |
| 2026-05-04 20:40 | 44.51846 | 16.56567 | 37110 ft | 482 kts | 141° |
| 2026-05-04 20:41 | 44.46703 | 16.62581 | 37122 ft | 481 kts | 141° |
| 2026-05-04 20:41 | 44.41558 | 16.68582 | 37120 ft | 481 kts | 141° |
| 2026-05-04 20:42 | 44.36409 | 16.74573 | 37126 ft | 482 kts | 141° |
| 2026-05-04 20:42 | 44.31248 | 16.80566 | 37116 ft | 482 kts | 141° |
| 2026-05-04 20:43 | 44.26116 | 16.86510 | 37127 ft | 483 kts | 141° |
| 2026-05-04 20:43 | 44.20942 | 16.92489 | 37123 ft | 483 kts | 141° |
| 2026-05-04 20:44 | 44.15768 | 16.98452 | 37135 ft | 483 kts | 141° |
| 2026-05-04 20:44 | 44.10585 | 17.04413 | 37130 ft | 483 kts | 141° |
| 2026-05-04 20:45 | 44.06276 | 17.09358 | 37135 ft | 484 kts | 141° |
| 2026-05-04 20:45 | 44.01078 | 17.15310 | 37137 ft | 485 kts | 141° |
| 2026-05-04 20:46 | 43.95873 | 17.21257 | 37137 ft | 484 kts | 141° |
| 2026-05-04 20:46 | 43.90667 | 17.27190 | 37141 ft | 484 kts | 141° |
| 2026-05-04 20:47 | 43.85461 | 17.33110 | 37123 ft | 484 kts | 141° |
| 2026-05-04 20:47 | 43.80244 | 17.39028 | 37140 ft | 485 kts | 141° |
| 2026-05-04 20:48 | 43.75021 | 17.44940 | 37129 ft | 485 kts | 141° |
| 2026-05-04 20:48 | 43.69793 | 17.50844 | 37129 ft | 485 kts | 141° |
| 2026-05-04 20:49 | 43.64565 | 17.56734 | 37129 ft | 485 kts | 141° |
| 2026-05-04 20:49 | 43.59328 | 17.62619 | 37119 ft | 486 kts | 141° |
| 2026-05-04 20:50 | 43.54015 | 17.68403 | 37125 ft | 487 kts | 144° |
| 2026-05-04 20:50 | 43.48471 | 17.73742 | 37124 ft | 487 kts | 147° |
| 2026-05-04 20:51 | 43.42868 | 17.78970 | 37129 ft | 486 kts | 146° |
| 2026-05-04 20:51 | 43.37328 | 17.84180 | 37129 ft | 486 kts | 146° |
| 2026-05-04 20:52 | 43.31765 | 17.89451 | 37130 ft | 486 kts | 146° |
| 2026-05-04 20:52 | 43.26204 | 17.94724 | 37131 ft | 486 kts | 146° |
| 2026-05-04 20:53 | 43.20642 | 17.99987 | 37131 ft | 486 kts | 146° |
| 2026-05-04 20:53 | 43.15078 | 18.05238 | 37133 ft | 486 kts | 146° |
| 2026-05-04 20:54 | 43.09497 | 18.10491 | 37143 ft | 488 kts | 146° |
| 2026-05-04 20:54 | 43.03903 | 18.15744 | 37146 ft | 488 kts | 146° |
| 2026-05-04 20:55 | 42.98308 | 18.20987 | 37149 ft | 488 kts | 146° |
| 2026-05-04 20:55 | 42.92709 | 18.26222 | 37144 ft | 488 kts | 146° |
| 2026-05-04 20:56 | 42.87098 | 18.31455 | 37141 ft | 489 kts | 146° |
| 2026-05-04 20:56 | 42.81479 | 18.36685 | 37139 ft | 489 kts | 146° |
| 2026-05-04 20:57 | 42.75861 | 18.41903 | 37136 ft | 489 kts | 147° |
| 2026-05-04 20:57 | 42.70241 | 18.47108 | 37128 ft | 488 kts | 146° |
| 2026-05-04 20:58 | 42.64618 | 18.52307 | 37137 ft | 490 kts | 146° |
| 2026-05-04 20:58 | 42.58980 | 18.57508 | 37135 ft | 490 kts | 146° |
| 2026-05-04 20:59 | 42.53342 | 18.62698 | 37130 ft | 490 kts | 146° |
| 2026-05-04 20:59 | 42.47699 | 18.67880 | 37120 ft | 490 kts | 147° |
| 2026-05-04 21:00 | 42.42078 | 18.73031 | 37127 ft | 491 kts | 146° |
| 2026-05-04 21:00 | 42.36413 | 18.78210 | 37150 ft | 492 kts | 146° |
| 2026-05-04 21:01 | 42.30741 | 18.83384 | 37133 ft | 492 kts | 146° |
| 2026-05-04 21:01 | 42.25065 | 18.88550 | 37131 ft | 492 kts | 146° |
| 2026-05-04 21:02 | 42.19387 | 18.93707 | 37129 ft | 492 kts | 146° |
| 2026-05-04 21:02 | 42.13700 | 18.98862 | 37136 ft | 493 kts | 146° |
| 2026-05-04 21:03 | 42.08012 | 19.04005 | 37135 ft | 493 kts | 146° |
| 2026-05-04 21:03 | 42.02320 | 19.09142 | 37137 ft | 493 kts | 146° |
| 2026-05-04 21:04 | 41.96621 | 19.14272 | 37146 ft | 493 kts | 146° |
| 2026-05-04 21:04 | 41.90912 | 19.19401 | 37142 ft | 494 kts | 146° |
| 2026-05-04 21:05 | 41.85199 | 19.24522 | 37140 ft | 494 kts | 146° |
| 2026-05-04 21:05 | 41.79486 | 19.29632 | 37145 ft | 494 kts | 146° |
| 2026-05-04 21:06 | 41.73707 | 19.34501 | 37142 ft | 495 kts | 150° |
| 2026-05-04 21:06 | 41.67690 | 19.39113 | 37144 ft | 496 kts | 151° |
| 2026-05-04 21:07 | 41.61729 | 19.43628 | 37146 ft | 496 kts | 151° |
| 2026-05-04 21:07 | 41.55741 | 19.48202 | 37153 ft | 496 kts | 150° |
| 2026-05-04 21:08 | 41.49761 | 19.52791 | 37148 ft | 497 kts | 150° |
| 2026-05-04 21:08 | 41.43757 | 19.57397 | 37151 ft | 498 kts | 150° |
| 2026-05-04 21:09 | 41.37746 | 19.61999 | 37151 ft | 498 kts | 150° |
| 2026-05-04 21:09 | 41.31733 | 19.66590 | 37156 ft | 498 kts | 150° |
| 2026-05-04 21:10 | 41.25714 | 19.71174 | 37156 ft | 499 kts | 150° |
| 2026-05-04 21:10 | 41.19682 | 19.75758 | 37156 ft | 500 kts | 150° |
| 2026-05-04 21:11 | 41.13644 | 19.80338 | 37182 ft | 500 kts | 150° |
| 2026-05-04 21:11 | 41.07600 | 19.84912 | 37157 ft | 500 kts | 150° |
| 2026-05-04 21:12 | 41.01559 | 19.89474 | 37160 ft | 500 kts | 150° |
| 2026-05-04 21:12 | 40.95514 | 19.94030 | 37166 ft | 500 kts | 150° |
| 2026-05-04 21:13 | 40.89467 | 19.98577 | 37161 ft | 500 kts | 150° |
| 2026-05-04 21:13 | 40.83419 | 20.03116 | 37155 ft | 500 kts | 151° |
| 2026-05-04 21:14 | 40.77361 | 20.07652 | 37165 ft | 501 kts | 151° |
| 2026-05-04 21:14 | 40.71291 | 20.12187 | 37171 ft | 501 kts | 150° |
| 2026-05-04 21:15 | 40.65225 | 20.16711 | 37163 ft | 501 kts | 151° |
| 2026-05-04 21:15 | 40.59163 | 20.21222 | 37171 ft | 500 kts | 151° |
| 2026-05-04 21:16 | 40.53096 | 20.25727 | 37171 ft | 501 kts | 151° |
| 2026-05-04 21:16 | 40.47062 | 20.30197 | 37172 ft | 501 kts | 151° |
| 2026-05-04 21:17 | 40.40982 | 20.34693 | 37182 ft | 501 kts | 151° |
| 2026-05-04 21:17 | 40.34903 | 20.39178 | 37169 ft | 501 kts | 151° |
| 2026-05-04 21:18 | 40.28811 | 20.43663 | 37179 ft | 503 kts | 151° |
| 2026-05-04 21:18 | 40.22710 | 20.48145 | 37193 ft | 503 kts | 151° |
| 2026-05-04 21:19 | 40.16610 | 20.52619 | 37179 ft | 502 kts | 151° |
| 2026-05-04 21:19 | 40.10515 | 20.57080 | 37169 ft | 502 kts | 151° |
| 2026-05-04 21:20 | 40.04350 | 20.61388 | 37176 ft | 503 kts | 155° |
| 2026-05-04 21:20 | 39.98016 | 20.65258 | 37178 ft | 503 kts | 156° |
| 2026-05-04 21:21 | 39.91650 | 20.69039 | 37180 ft | 503 kts | 156° |
| 2026-05-04 21:21 | 39.85301 | 20.72851 | 37180 ft | 503 kts | 156° |
| 2026-05-04 21:22 | 39.78945 | 20.76701 | 37184 ft | 504 kts | 156° |
| 2026-05-04 21:22 | 39.72585 | 20.80559 | 37184 ft | 504 kts | 156° |
| 2026-05-04 21:23 | 39.66319 | 20.84530 | 37184 ft | 504 kts | 153° |
| 2026-05-04 21:23 | 39.60080 | 20.88823 | 37184 ft | 505 kts | 153° |
| 2026-05-04 21:24 | 39.53925 | 20.93094 | 37184 ft | 506 kts | 153° |
| 2026-05-04 21:24 | 39.47708 | 20.97363 | 37182 ft | 506 kts | 153° |
| 2026-05-04 21:25 | 39.41480 | 21.01606 | 37191 ft | 506 kts | 153° |
| 2026-05-04 21:25 | 39.35249 | 21.05838 | 37187 ft | 507 kts | 153° |
| 2026-05-04 21:26 | 39.29003 | 21.10064 | 37182 ft | 507 kts | 153° |
| 2026-05-04 21:26 | 39.22750 | 21.14289 | 37202 ft | 507 kts | 153° |
| 2026-05-04 21:27 | 39.16497 | 21.18508 | 37182 ft | 507 kts | 153° |
| 2026-05-04 21:27 | 39.10247 | 21.22717 | 37178 ft | 508 kts | 153° |
| 2026-05-04 21:28 | 39.03980 | 21.26929 | 37183 ft | 508 kts | 153° |
| 2026-05-04 21:28 | 38.97712 | 21.31133 | 37185 ft | 508 kts | 153° |
| 2026-05-04 21:29 | 38.91446 | 21.35327 | 37177 ft | 508 kts | 153° |
| 2026-05-04 21:29 | 38.85171 | 21.39518 | 37181 ft | 509 kts | 153° |
| 2026-05-04 21:30 | 38.78876 | 21.43715 | 37187 ft | 510 kts | 154° |
| 2026-05-04 21:30 | 38.72581 | 21.47905 | 37186 ft | 510 kts | 154° |
| 2026-05-04 21:31 | 38.63125 | 21.54182 | 37189 ft | 510 kts | 154° |
| 2026-05-04 21:32 | 38.56822 | 21.58355 | 37185 ft | 510 kts | 154° |
| 2026-05-04 21:32 | 38.50516 | 21.62524 | 37188 ft | 510 kts | 154° |
| 2026-05-04 21:33 | 38.44253 | 21.66655 | 37187 ft | 510 kts | 154° |
| 2026-05-04 21:33 | 38.37945 | 21.70808 | 37179 ft | 510 kts | 154° |
| 2026-05-04 21:34 | 38.31634 | 21.74955 | 37181 ft | 511 kts | 154° |
| 2026-05-04 21:34 | 38.25313 | 21.79100 | 37185 ft | 511 kts | 154° |
| 2026-05-04 21:35 | 38.19003 | 21.83229 | 37183 ft | 510 kts | 154° |
| 2026-05-04 21:35 | 38.12694 | 21.87351 | 37186 ft | 511 kts | 154° |
| 2026-05-04 21:36 | 38.06363 | 21.91477 | 37188 ft | 512 kts | 154° |
| 2026-05-04 21:36 | 38.01096 | 21.94905 | 37192 ft | 512 kts | 154° |
| 2026-05-04 21:37 | 37.94759 | 21.99022 | 37199 ft | 512 kts | 154° |
| 2026-05-04 21:37 | 37.88422 | 22.03130 | 37194 ft | 512 kts | 154° |
| 2026-05-04 21:38 | 37.82074 | 22.07239 | 37203 ft | 512 kts | 154° |
| 2026-05-04 21:38 | 37.75722 | 22.11340 | 37204 ft | 513 kts | 154° |
| 2026-05-04 21:39 | 37.69371 | 22.15432 | 37206 ft | 513 kts | 154° |
| 2026-05-04 21:39 | 37.63017 | 22.19519 | 37198 ft | 513 kts | 155° |
| 2026-05-04 21:40 | 37.56656 | 22.23603 | 37204 ft | 513 kts | 155° |
| 2026-05-04 21:40 | 37.50298 | 22.27678 | 37198 ft | 513 kts | 155° |
| 2026-05-04 21:41 | 37.43934 | 22.31749 | 37195 ft | 513 kts | 155° |
| 2026-05-04 21:41 | 37.37571 | 22.35807 | 37188 ft | 513 kts | 155° |
| 2026-05-04 21:42 | 37.31194 | 22.39853 | 37187 ft | 513 kts | 155° |
| 2026-05-04 21:42 | 37.24819 | 22.43890 | 37189 ft | 513 kts | 155° |
| 2026-05-04 21:43 | 37.18436 | 22.47924 | 37186 ft | 514 kts | 155° |
| 2026-05-04 21:43 | 37.12052 | 22.51952 | 37178 ft | 514 kts | 155° |
| 2026-05-04 21:44 | 37.05648 | 22.55985 | 37173 ft | 515 kts | 155° |
| 2026-05-04 21:44 | 36.99281 | 22.59987 | 37171 ft | 516 kts | 155° |
| 2026-05-04 21:45 | 36.92868 | 22.64011 | 37161 ft | 516 kts | 155° |
| 2026-05-04 21:45 | 36.86454 | 22.68027 | 37170 ft | 516 kts | 155° |
| 2026-05-04 21:46 | 36.80041 | 22.72036 | 37153 ft | 516 kts | 155° |
| 2026-05-04 21:46 | 36.73621 | 22.76040 | 37148 ft | 516 kts | 155° |
| 2026-05-04 21:47 | 36.67198 | 22.80040 | 37148 ft | 516 kts | 155° |
| 2026-05-04 21:47 | 36.60770 | 22.84035 | 37155 ft | 517 kts | 156° |
| 2026-05-04 21:48 | 36.54332 | 22.88029 | 37132 ft | 517 kts | 156° |
| 2026-05-04 21:48 | 36.47894 | 22.92015 | 37150 ft | 517 kts | 156° |
| 2026-05-04 21:49 | 36.41448 | 22.95999 | 37134 ft | 517 kts | 156° |
| 2026-05-04 21:49 | 36.35004 | 22.99974 | 37143 ft | 517 kts | 156° |
| 2026-05-04 21:50 | 36.28557 | 23.03944 | 37142 ft | 518 kts | 156° |
| 2026-05-04 21:50 | 36.22100 | 23.07912 | 37140 ft | 518 kts | 156° |
| 2026-05-04 21:51 | 36.15645 | 23.11872 | 37142 ft | 518 kts | 156° |
| 2026-05-04 21:51 | 36.09177 | 23.15833 | 37142 ft | 519 kts | 156° |
| 2026-05-04 21:52 | 36.02708 | 23.19788 | 37148 ft | 519 kts | 156° |
| 2026-05-04 21:52 | 35.96229 | 23.23742 | 37144 ft | 519 kts | 156° |
| 2026-05-04 21:53 | 35.89755 | 23.27686 | 37149 ft | 519 kts | 156° |
| 2026-05-04 21:53 | 35.83279 | 23.31624 | 37149 ft | 519 kts | 156° |
| 2026-05-04 21:54 | 35.76850 | 23.35526 | 37152 ft | 519 kts | 156° |
| 2026-05-04 21:54 | 35.70372 | 23.39450 | 37156 ft | 519 kts | 156° |
| 2026-05-04 21:55 | 35.63889 | 23.43371 | 37165 ft | 519 kts | 156° |
| 2026-05-04 21:55 | 35.57407 | 23.47284 | 37139 ft | 520 kts | 157° |
| 2026-05-04 21:56 | 35.50913 | 23.51196 | 37160 ft | 520 kts | 157° |
| 2026-05-04 21:56 | 35.44412 | 23.55106 | 37160 ft | 520 kts | 157° |
| 2026-05-04 21:57 | 35.37906 | 23.59013 | 37163 ft | 520 kts | 157° |
| 2026-05-04 21:57 | 35.31410 | 23.62908 | 37148 ft | 520 kts | 157° |
| 2026-05-04 21:58 | 35.24904 | 23.66799 | 37162 ft | 520 kts | 157° |
| 2026-05-04 21:58 | 35.18425 | 23.70774 | 37165 ft | 522 kts | 156° |
| 2026-05-04 21:59 | 35.11997 | 23.74879 | 37159 ft | 516 kts | 155° |
| 2026-05-04 21:59 | 35.08864 | 23.76891 | 37165 ft | 503 kts | 155° |
| 2026-05-04 21:59 | 35.05801 | 23.78855 | 37160 ft | 491 kts | 155° |
| 2026-05-04 22:00 | 34.99800 | 23.82674 | 37157 ft | 481 kts | 156° |
| 2026-05-04 22:00 | 34.93928 | 23.86389 | 37161 ft | 473 kts | 156° |
| 2026-05-04 22:01 | 34.88089 | 23.90071 | 37155 ft | 471 kts | 156° |
| 2026-05-04 22:01 | 34.82298 | 23.93719 | 37154 ft | 467 kts | 156° |
| 2026-05-04 22:02 | 34.76531 | 23.97349 | 37147 ft | 464 kts | 156° |
| 2026-05-04 22:02 | 34.70861 | 24.00914 | 37157 ft | 462 kts | 156° |
| 2026-05-04 22:03 | 34.65142 | 24.04500 | 37156 ft | 463 kts | 156° |
| 2026-05-04 22:03 | 34.59411 | 24.08091 | 37160 ft | 463 kts | 156° |
| 2026-05-04 22:04 | 34.53687 | 24.11672 | 37162 ft | 463 kts | 156° |
| 2026-05-04 22:04 | 34.47961 | 24.15249 | 37154 ft | 463 kts | 157° |
| 2026-05-04 22:05 | 34.42224 | 24.18827 | 37159 ft | 464 kts | 157° |
| 2026-05-04 22:05 | 34.36485 | 24.22401 | 37162 ft | 464 kts | 157° |
| 2026-05-04 22:06 | 34.30745 | 24.25970 | 37161 ft | 464 kts | 157° |
| 2026-05-04 22:06 | 34.25004 | 24.29534 | 37165 ft | 464 kts | 157° |
| 2026-05-04 22:07 | 34.19255 | 24.33097 | 37157 ft | 465 kts | 157° |
| 2026-05-04 22:07 | 34.13492 | 24.36663 | 37161 ft | 466 kts | 157° |
| 2026-05-04 22:08 | 34.07723 | 24.40228 | 37165 ft | 465 kts | 157° |
| 2026-05-04 22:08 | 34.01983 | 24.43812 | 37160 ft | 466 kts | 153° |
| 2026-05-04 22:09 | 33.96762 | 24.48472 | 37162 ft | 469 kts | 142° |
| 2026-05-04 22:09 | 33.91844 | 24.53663 | 37153 ft | 471 kts | 140° |
| 2026-05-04 22:10 | 33.86975 | 24.58954 | 37155 ft | 472 kts | 140° |
| 2026-05-04 22:10 | 33.82094 | 24.64239 | 37156 ft | 472 kts | 140° |
| 2026-05-04 22:11 | 33.77232 | 24.69463 | 37173 ft | 472 kts | 140° |
| 2026-05-04 22:11 | 33.72331 | 24.74705 | 37175 ft | 472 kts | 140° |
| 2026-05-04 22:12 | 33.67425 | 24.79943 | 37155 ft | 472 kts | 140° |
| 2026-05-04 22:12 | 33.62520 | 24.85173 | 37160 ft | 472 kts | 140° |
| 2026-05-04 22:13 | 33.57607 | 24.90404 | 37162 ft | 473 kts | 140° |
| 2026-05-04 22:13 | 33.52685 | 24.95636 | 37162 ft | 473 kts | 140° |
| 2026-05-04 22:14 | 33.47765 | 25.00858 | 37171 ft | 473 kts | 140° |
| 2026-05-04 22:14 | 33.42847 | 25.06071 | 37163 ft | 472 kts | 140° |
| 2026-05-04 22:15 | 33.37934 | 25.11269 | 37145 ft | 471 kts | 140° |
| 2026-05-04 22:15 | 33.33021 | 25.16459 | 37148 ft | 471 kts | 140° |
| 2026-05-04 22:16 | 33.28103 | 25.21645 | 37145 ft | 471 kts | 140° |
| 2026-05-04 22:16 | 33.23186 | 25.26823 | 37145 ft | 471 kts | 140° |
| 2026-05-04 22:17 | 33.18266 | 25.31996 | 37163 ft | 471 kts | 140° |
| 2026-05-04 22:17 | 33.13380 | 25.37126 | 37165 ft | 470 kts | 141° |
| 2026-05-04 22:18 | 33.08476 | 25.42267 | 37160 ft | 469 kts | 141° |
| 2026-05-04 22:18 | 33.03573 | 25.47397 | 37160 ft | 469 kts | 141° |
| 2026-05-04 22:19 | 32.98668 | 25.52523 | 37160 ft | 469 kts | 141° |
| 2026-05-04 22:19 | 32.93761 | 25.57642 | 37159 ft | 469 kts | 141° |
| 2026-05-04 22:20 | 32.88849 | 25.62759 | 37162 ft | 469 kts | 141° |
| 2026-05-04 22:20 | 32.83938 | 25.67867 | 37158 ft | 469 kts | 141° |
| 2026-05-04 22:21 | 32.79031 | 25.72964 | 37163 ft | 468 kts | 141° |
| 2026-05-04 22:21 | 32.74126 | 25.78050 | 37160 ft | 468 kts | 141° |
| 2026-05-04 22:22 | 32.69221 | 25.83129 | 37148 ft | 468 kts | 141° |
| 2026-05-04 22:22 | 32.64315 | 25.88201 | 37157 ft | 467 kts | 141° |
| 2026-05-04 22:23 | 32.59410 | 25.93264 | 37157 ft | 467 kts | 141° |
| 2026-05-04 22:23 | 32.54505 | 25.98320 | 37156 ft | 466 kts | 142° |
| 2026-05-04 22:24 | 32.49614 | 26.03354 | 37157 ft | 465 kts | 142° |
| 2026-05-04 22:24 | 32.44725 | 26.08378 | 37157 ft | 465 kts | 142° |
| 2026-05-04 22:25 | 32.39832 | 26.13399 | 37156 ft | 465 kts | 142° |
| 2026-05-04 22:25 | 32.35767 | 26.17564 | 37158 ft | 465 kts | 142° |
| 2026-05-04 22:26 | 32.30875 | 26.22570 | 37153 ft | 465 kts | 142° |
| 2026-05-04 22:26 | 32.25982 | 26.27569 | 37151 ft | 464 kts | 142° |
| 2026-05-04 22:27 | 32.21103 | 26.32548 | 37151 ft | 463 kts | 142° |
| 2026-05-04 22:27 | 32.16232 | 26.37510 | 37156 ft | 463 kts | 142° |
| 2026-05-04 22:28 | 32.11357 | 26.42469 | 37151 ft | 463 kts | 143° |
| 2026-05-04 22:28 | 32.06480 | 26.47422 | 37136 ft | 462 kts | 143° |
| 2026-05-04 22:29 | 32.01603 | 26.52369 | 37151 ft | 462 kts | 143° |
| 2026-05-04 22:29 | 31.96726 | 26.57309 | 37160 ft | 462 kts | 143° |
| 2026-05-04 22:30 | 31.91856 | 26.62235 | 37157 ft | 461 kts | 143° |
| 2026-05-04 22:30 | 31.87026 | 26.67113 | 37157 ft | 460 kts | 143° |
| 2026-05-04 22:31 | 31.82163 | 26.72017 | 37157 ft | 460 kts | 143° |
| 2026-05-04 22:31 | 31.77297 | 26.76916 | 37154 ft | 460 kts | 143° |
| 2026-05-04 22:32 | 31.72433 | 26.81808 | 37167 ft | 461 kts | 143° |
| 2026-05-04 22:32 | 31.67560 | 26.86700 | 37156 ft | 461 kts | 143° |
| 2026-05-04 22:33 | 31.62694 | 26.91580 | 37159 ft | 460 kts | 144° |
| 2026-05-04 22:33 | 31.57829 | 26.96452 | 37162 ft | 459 kts | 144° |
| 2026-05-04 22:34 | 31.52968 | 27.01311 | 37162 ft | 459 kts | 144° |
| 2026-05-04 22:34 | 31.48105 | 27.06166 | 37167 ft | 459 kts | 144° |
| 2026-05-04 22:35 | 31.43238 | 27.11018 | 37130 ft | 459 kts | 144° |
| 2026-05-04 22:35 | 31.38369 | 27.15866 | 37165 ft | 459 kts | 144° |
| 2026-05-04 22:36 | 31.33514 | 27.20627 | 37186 ft | 456 kts | 149° |
| 2026-05-04 22:36 | 31.28129 | 27.24316 | 37187 ft | 445 kts | 160° |
| 2026-05-04 22:37 | 31.22548 | 27.27434 | 37180 ft | 444 kts | 162° |
| 2026-05-04 22:37 | 31.16931 | 27.30441 | 37182 ft | 444 kts | 162° |
| 2026-05-04 22:38 | 31.11314 | 27.33450 | 37179 ft | 444 kts | 163° |
| 2026-05-04 22:38 | 31.05697 | 27.36479 | 37175 ft | 445 kts | 163° |
| 2026-05-04 22:39 | 31.00081 | 27.39515 | 37169 ft | 445 kts | 163° |
| 2026-05-04 22:39 | 30.94489 | 27.42611 | 37168 ft | 449 kts | 157° |
| 2026-05-04 22:40 | 30.89323 | 27.46831 | 37176 ft | 456 kts | 148° |
| 2026-05-04 22:40 | 30.84331 | 27.51418 | 37118 ft | 457 kts | 148° |
| 2026-05-04 22:41 | 30.79369 | 27.56071 | 37173 ft | 460 kts | 148° |
| 2026-05-04 22:41 | 30.74377 | 27.60727 | 37169 ft | 460 kts | 148° |
| 2026-05-04 22:42 | 30.69373 | 27.65362 | 37167 ft | 460 kts | 148° |
| 2026-05-04 22:42 | 30.64365 | 27.69983 | 37168 ft | 460 kts | 148° |
| 2026-05-04 22:43 | 30.59353 | 27.74600 | 37161 ft | 460 kts | 148° |
| 2026-05-04 22:43 | 30.54341 | 27.79213 | 37161 ft | 460 kts | 148° |
| 2026-05-04 22:44 | 30.49328 | 27.83820 | 37149 ft | 460 kts | 148° |
| 2026-05-04 22:44 | 30.44335 | 27.88402 | 37160 ft | 461 kts | 148° |
| 2026-05-04 22:45 | 30.39305 | 27.93013 | 37159 ft | 461 kts | 148° |
| 2026-05-04 22:45 | 30.31756 | 27.99922 | 37160 ft | 461 kts | 148° |
| 2026-05-04 22:46 | 30.26720 | 28.04524 | 37160 ft | 461 kts | 148° |
| 2026-05-04 22:46 | 30.21685 | 28.09117 | 37156 ft | 461 kts | 149° |
| 2026-05-04 22:47 | 30.16660 | 28.13696 | 37171 ft | 460 kts | 149° |
| 2026-05-04 22:47 | 30.11636 | 28.18267 | 37153 ft | 460 kts | 149° |
| 2026-05-04 22:48 | 30.06611 | 28.22833 | 37153 ft | 460 kts | 149° |
| 2026-05-04 22:48 | 30.01583 | 28.27395 | 37155 ft | 460 kts | 149° |
| 2026-05-04 22:49 | 29.96555 | 28.31952 | 37145 ft | 460 kts | 149° |
| 2026-05-04 22:49 | 29.91525 | 28.36505 | 37148 ft | 460 kts | 149° |
| 2026-05-04 22:50 | 29.86629 | 28.41269 | 37140 ft | 465 kts | 139° |
| 2026-05-04 22:50 | 29.82450 | 28.47005 | 37150 ft | 468 kts | 134° |
| 2026-05-04 22:51 | 29.78463 | 28.52950 | 37145 ft | 469 kts | 133° |
| 2026-05-04 22:51 | 29.74505 | 28.58930 | 37147 ft | 470 kts | 133° |
| 2026-05-04 22:52 | 29.70529 | 28.64894 | 37146 ft | 470 kts | 133° |
| 2026-05-04 22:52 | 29.66542 | 28.70834 | 37144 ft | 469 kts | 133° |
| 2026-05-04 22:53 | 29.62549 | 28.76766 | 37145 ft | 469 kts | 133° |
| 2026-05-04 22:53 | 29.58559 | 28.82686 | 37145 ft | 469 kts | 133° |
| 2026-05-04 22:54 | 29.54592 | 28.88567 | 37145 ft | 469 kts | 134° |
| 2026-05-04 22:54 | 29.50597 | 28.94480 | 37145 ft | 469 kts | 134° |
| 2026-05-04 22:55 | 29.46601 | 29.00387 | 37148 ft | 468 kts | 134° |
| 2026-05-04 22:55 | 29.42577 | 29.06219 | 37140 ft | 462 kts | 140° |
| 2026-05-04 22:56 | 29.37826 | 29.10994 | 37143 ft | 452 kts | 150° |
| 2026-05-04 22:56 | 29.32851 | 29.15380 | 37143 ft | 451 kts | 152° |
| 2026-05-04 22:57 | 29.27832 | 29.19687 | 37143 ft | 451 kts | 152° |
| 2026-05-04 22:57 | 29.22819 | 29.23998 | 37144 ft | 451 kts | 152° |
| 2026-05-04 22:58 | 29.17814 | 29.28324 | 37142 ft | 450 kts | 152° |
| 2026-05-04 22:58 | 29.12826 | 29.32639 | 37143 ft | 449 kts | 152° |
| 2026-05-04 22:59 | 29.07812 | 29.36873 | 37143 ft | 447 kts | 153° |
| 2026-05-04 22:59 | 29.02775 | 29.41049 | 37145 ft | 447 kts | 153° |
| 2026-05-04 23:00 | 28.97741 | 29.45216 | 37149 ft | 447 kts | 153° |
| 2026-05-04 23:00 | 28.92702 | 29.49394 | 37148 ft | 447 kts | 153° |
| 2026-05-04 23:01 | 28.87671 | 29.53566 | 37146 ft | 447 kts | 153° |
| 2026-05-04 23:01 | 28.82677 | 29.57706 | 37148 ft | 446 kts | 153° |
| 2026-05-04 23:02 | 28.77672 | 29.61849 | 37149 ft | 444 kts | 153° |
| 2026-05-04 23:02 | 28.72677 | 29.65974 | 37139 ft | 443 kts | 153° |
| 2026-05-04 23:03 | 28.67682 | 29.70095 | 37139 ft | 443 kts | 153° |
| 2026-05-04 23:03 | 28.62684 | 29.74214 | 37149 ft | 443 kts | 153° |
| 2026-05-04 23:04 | 28.57682 | 29.78332 | 37142 ft | 443 kts | 153° |
| 2026-05-04 23:04 | 28.52683 | 29.82443 | 37088 ft | 443 kts | 153° |
| 2026-05-04 23:05 | 28.47697 | 29.86540 | 37144 ft | 441 kts | 154° |
| 2026-05-04 23:05 | 28.42730 | 29.90617 | 37146 ft | 440 kts | 154° |
| 2026-05-04 23:06 | 28.37765 | 29.94683 | 37141 ft | 440 kts | 154° |
| 2026-05-04 23:06 | 28.32799 | 29.98745 | 37142 ft | 440 kts | 154° |
| 2026-05-04 23:07 | 28.27835 | 30.02803 | 37145 ft | 440 kts | 154° |
| 2026-05-04 23:07 | 28.22868 | 30.06859 | 37143 ft | 440 kts | 154° |
| 2026-05-04 23:08 | 28.17901 | 30.10910 | 37146 ft | 439 kts | 154° |
| 2026-05-04 23:08 | 28.12952 | 30.14944 | 37146 ft | 437 kts | 154° |
| 2026-05-04 23:09 | 28.08015 | 30.18961 | 37142 ft | 437 kts | 154° |
| 2026-05-04 23:09 | 28.03078 | 30.22972 | 37141 ft | 437 kts | 154° |
| 2026-05-04 23:10 | 27.98172 | 30.26953 | 37142 ft | 437 kts | 154° |
| 2026-05-04 23:10 | 27.93232 | 30.30959 | 37149 ft | 437 kts | 154° |
| 2026-05-04 23:11 | 27.88293 | 30.34959 | 37115 ft | 436 kts | 154° |
| 2026-05-04 23:11 | 27.83360 | 30.38950 | 37147 ft | 436 kts | 154° |
| 2026-05-04 23:12 | 27.78430 | 30.42935 | 37143 ft | 435 kts | 154° |
| 2026-05-04 23:12 | 27.73512 | 30.46905 | 37146 ft | 434 kts | 154° |
| 2026-05-04 23:13 | 27.68594 | 30.50870 | 37142 ft | 434 kts | 154° |
| 2026-05-04 23:13 | 27.63677 | 30.54828 | 37143 ft | 434 kts | 154° |
| 2026-05-04 23:14 | 27.58763 | 30.58781 | 37143 ft | 434 kts | 154° |
| 2026-05-04 23:14 | 27.53843 | 30.62734 | 37143 ft | 434 kts | 154° |
| 2026-05-04 23:15 | 27.48922 | 30.66683 | 37145 ft | 434 kts | 154° |
| 2026-05-04 23:15 | 27.43996 | 30.70633 | 37143 ft | 434 kts | 154° |
| 2026-05-04 23:16 | 27.39072 | 30.74576 | 37145 ft | 434 kts | 154° |
| 2026-05-04 23:16 | 27.34977 | 30.77852 | 37144 ft | 434 kts | 154° |
| 2026-05-04 23:17 | 27.30051 | 30.81789 | 37143 ft | 434 kts | 154° |
| 2026-05-04 23:17 | 27.25126 | 30.85721 | 37148 ft | 434 kts | 154° |
| 2026-05-04 23:18 | 27.20193 | 30.89654 | 37139 ft | 435 kts | 154° |
| 2026-05-04 23:18 | 27.15250 | 30.93590 | 37141 ft | 436 kts | 154° |
| 2026-05-04 23:19 | 27.10307 | 30.97523 | 37150 ft | 436 kts | 154° |
| 2026-05-04 23:19 | 27.05368 | 31.01468 | 37152 ft | 438 kts | 152° |
| 2026-05-04 23:20 | 27.00920 | 31.06290 | 37151 ft | 451 kts | 139° |
| 2026-05-04 23:20 | 26.96872 | 31.11713 | 37151 ft | 455 kts | 137° |
| 2026-05-04 23:21 | 26.92908 | 31.17241 | 37150 ft | 455 kts | 137° |
| 2026-05-04 23:21 | 26.88937 | 31.22765 | 37137 ft | 455 kts | 137° |
| 2026-05-04 23:22 | 26.84949 | 31.28265 | 37124 ft | 454 kts | 137° |
| 2026-05-04 23:22 | 26.80954 | 31.33749 | 37132 ft | 454 kts | 137° |
| 2026-05-04 23:23 | 26.76983 | 31.39187 | 37132 ft | 454 kts | 137° |
| 2026-05-04 23:23 | 26.72982 | 31.44664 | 37125 ft | 454 kts | 137° |
| 2026-05-04 23:24 | 26.68981 | 31.50136 | 37124 ft | 454 kts | 137° |
| 2026-05-04 23:24 | 26.64981 | 31.55600 | 37111 ft | 454 kts | 138° |
| 2026-05-04 23:25 | 26.60981 | 31.61057 | 37111 ft | 454 kts | 138° |
| 2026-05-04 23:25 | 26.56979 | 31.66509 | 37106 ft | 454 kts | 138° |
| 2026-05-04 23:26 | 26.52975 | 31.71958 | 37108 ft | 454 kts | 138° |
| 2026-05-04 23:26 | 26.48968 | 31.77403 | 37094 ft | 454 kts | 138° |
| 2026-05-04 23:27 | 26.44964 | 31.82839 | 37095 ft | 453 kts | 139° |
| 2026-05-04 23:27 | 26.40958 | 31.88271 | 37089 ft | 453 kts | 139° |
| 2026-05-04 23:28 | 26.36950 | 31.93698 | 37094 ft | 453 kts | 139° |
| 2026-05-04 23:28 | 26.32941 | 31.99119 | 37083 ft | 453 kts | 139° |
| 2026-05-04 23:29 | 26.28931 | 32.04538 | 37083 ft | 453 kts | 139° |
| 2026-05-04 23:29 | 26.24916 | 32.09955 | 37076 ft | 453 kts | 139° |
| 2026-05-04 23:30 | 26.20901 | 32.15367 | 37081 ft | 453 kts | 139° |
| 2026-05-04 23:30 | 26.16883 | 32.20774 | 37072 ft | 453 kts | 139° |
| 2026-05-04 23:31 | 26.12865 | 32.26177 | 37068 ft | 453 kts | 139° |
| 2026-05-04 23:31 | 26.08845 | 32.31576 | 37060 ft | 453 kts | 139° |
| 2026-05-04 23:32 | 26.04848 | 32.36936 | 37074 ft | 453 kts | 139° |
| 2026-05-04 23:32 | 26.00821 | 32.42333 | 37041 ft | 453 kts | 139° |
| 2026-05-04 23:33 | 25.96794 | 32.47722 | 37043 ft | 453 kts | 139° |
| 2026-05-04 23:33 | 25.92765 | 32.53108 | 37048 ft | 453 kts | 139° |
| 2026-05-04 23:34 | 25.88738 | 32.58483 | 37035 ft | 453 kts | 140° |
| 2026-05-04 23:34 | 25.84710 | 32.63857 | 37036 ft | 452 kts | 139° |
| 2026-05-04 23:35 | 25.80691 | 32.69212 | 37048 ft | 451 kts | 139° |
| 2026-05-04 23:35 | 25.76672 | 32.74557 | 37049 ft | 451 kts | 139° |
| 2026-05-04 23:36 | 25.72932 | 32.80229 | 37014 ft | 458 kts | 133° |
| 2026-05-04 23:36 | 25.69389 | 32.86106 | 37024 ft | 459 kts | 132° |
| 2026-05-04 23:37 | 25.65883 | 32.92013 | 37024 ft | 458 kts | 132° |
| 2026-05-04 23:37 | 25.62384 | 32.97899 | 37026 ft | 457 kts | 132° |
| 2026-05-04 23:38 | 25.58878 | 33.03762 | 37017 ft | 456 kts | 132° |
| 2026-05-04 23:38 | 25.55370 | 33.09618 | 37023 ft | 456 kts | 132° |
| 2026-05-04 23:39 | 25.51858 | 33.15471 | 37017 ft | 456 kts | 132° |
| 2026-05-04 23:39 | 25.48374 | 33.21274 | 37017 ft | 455 kts | 133° |
| 2026-05-04 23:40 | 25.44871 | 33.27100 | 37018 ft | 454 kts | 133° |
| 2026-05-04 23:40 | 25.41367 | 33.32919 | 37018 ft | 454 kts | 133° |
| 2026-05-04 23:41 | 25.37859 | 33.38736 | 37016 ft | 455 kts | 133° |
| 2026-05-04 23:41 | 25.34350 | 33.44549 | 37008 ft | 454 kts | 133° |
| 2026-05-04 23:42 | 25.30840 | 33.50358 | 37007 ft | 455 kts | 133° |
| 2026-05-04 23:42 | 25.27328 | 33.56164 | 36985 ft | 454 kts | 133° |
| 2026-05-04 23:43 | 25.23816 | 33.61966 | 37005 ft | 454 kts | 133° |
| 2026-05-04 23:43 | 25.20306 | 33.67758 | 37007 ft | 454 kts | 133° |
| 2026-05-04 23:44 | 25.16795 | 33.73542 | 37006 ft | 453 kts | 133° |
| 2026-05-04 23:44 | 25.13286 | 33.79315 | 37009 ft | 453 kts | 133° |
| 2026-05-04 23:45 | 25.09774 | 33.85087 | 37003 ft | 453 kts | 133° |
| 2026-05-04 23:45 | 25.06260 | 33.90856 | 37002 ft | 453 kts | 133° |
| 2026-05-04 23:46 | 25.02745 | 33.96617 | 36987 ft | 453 kts | 133° |
| 2026-05-04 23:46 | 24.99225 | 34.02382 | 37014 ft | 453 kts | 133° |
| 2026-05-04 23:47 | 24.95724 | 34.08105 | 36995 ft | 454 kts | 133° |
| 2026-05-04 23:47 | 24.92195 | 34.13870 | 36994 ft | 454 kts | 133° |
| 2026-05-04 23:48 | 24.88668 | 34.19629 | 36995 ft | 453 kts | 133° |
| 2026-05-04 23:48 | 24.85142 | 34.25378 | 36995 ft | 453 kts | 133° |
| 2026-05-04 23:49 | 24.81618 | 34.31115 | 36977 ft | 452 kts | 133° |
| 2026-05-04 23:49 | 24.78091 | 34.36848 | 36987 ft | 452 kts | 133° |
| 2026-05-04 23:50 | 24.74568 | 34.42569 | 36987 ft | 452 kts | 133° |
| 2026-05-04 23:50 | 24.71040 | 34.48291 | 36958 ft | 452 kts | 134° |
| 2026-05-04 23:51 | 24.67519 | 34.53997 | 36978 ft | 450 kts | 134° |
| 2026-05-04 23:51 | 24.64009 | 34.59680 | 36982 ft | 449 kts | 134° |
| 2026-05-04 23:52 | 24.60496 | 34.65354 | 36981 ft | 449 kts | 134° |
| 2026-05-04 23:52 | 24.56982 | 34.71027 | 36979 ft | 449 kts | 134° |
| 2026-05-04 23:53 | 24.53467 | 34.76696 | 36970 ft | 448 kts | 134° |
| 2026-05-04 23:53 | 24.49959 | 34.82348 | 36975 ft | 447 kts | 134° |
| 2026-05-04 23:54 | 24.46455 | 34.87985 | 36975 ft | 447 kts | 134° |
| 2026-05-04 23:54 | 24.42946 | 34.93617 | 36972 ft | 446 kts | 134° |
| 2026-05-04 23:55 | 24.39445 | 34.99235 | 36958 ft | 446 kts | 134° |
| 2026-05-04 23:56 | 24.34191 | 35.07663 | 36968 ft | 445 kts | 134° |
| 2026-05-04 23:56 | 24.30698 | 35.13257 | 36966 ft | 444 kts | 134° |
| 2026-05-04 23:57 | 24.27203 | 35.18843 | 36963 ft | 444 kts | 134° |
| 2026-05-04 23:57 | 24.23709 | 35.24422 | 36964 ft | 444 kts | 134° |
| 2026-05-04 23:58 | 24.20234 | 35.29964 | 36955 ft | 444 kts | 135° |
| 2026-05-04 23:58 | 24.16734 | 35.35540 | 36950 ft | 444 kts | 135° |
| 2026-05-04 23:59 | 24.13233 | 35.41112 | 36948 ft | 444 kts | 135° |
| 2026-05-04 23:59 | 24.09732 | 35.46678 | 36944 ft | 444 kts | 135° |
| 2026-05-05 00:00 | 24.06227 | 35.52244 | 36943 ft | 444 kts | 135° |
| 2026-05-05 00:00 | 24.02725 | 35.57799 | 36937 ft | 443 kts | 135° |
| 2026-05-05 00:01 | 23.99223 | 35.63348 | 36936 ft | 443 kts | 135° |
| 2026-05-05 00:01 | 23.95717 | 35.68895 | 36936 ft | 443 kts | 135° |
| 2026-05-05 00:02 | 23.92208 | 35.74437 | 36908 ft | 443 kts | 135° |
| 2026-05-05 00:02 | 23.88703 | 35.79967 | 36924 ft | 442 kts | 135° |
| 2026-05-05 00:03 | 23.85209 | 35.85473 | 36925 ft | 441 kts | 135° |
| 2026-05-05 00:03 | 23.81713 | 35.90975 | 36925 ft | 441 kts | 135° |
| 2026-05-05 00:04 | 23.78216 | 35.96471 | 36922 ft | 441 kts | 135° |
| 2026-05-05 00:04 | 23.74718 | 36.01964 | 36922 ft | 441 kts | 135° |
| 2026-05-05 00:05 | 23.71218 | 36.07455 | 36923 ft | 441 kts | 135° |
| 2026-05-05 00:05 | 23.67716 | 36.12943 | 36922 ft | 441 kts | 135° |
| 2026-05-05 00:06 | 23.64805 | 36.17500 | 36918 ft | 441 kts | 135° |
| 2026-05-05 00:06 | 23.61300 | 36.22982 | 36919 ft | 441 kts | 135° |
| 2026-05-05 00:07 | 23.57793 | 36.28461 | 36916 ft | 441 kts | 135° |
| 2026-05-05 00:07 | 23.54286 | 36.33935 | 36915 ft | 440 kts | 135° |
| 2026-05-05 00:08 | 23.50776 | 36.39406 | 36916 ft | 440 kts | 135° |
| 2026-05-05 00:08 | 23.47267 | 36.44871 | 36895 ft | 440 kts | 135° |
| 2026-05-05 00:09 | 23.43756 | 36.50332 | 36895 ft | 440 kts | 135° |
| 2026-05-05 00:09 | 23.40244 | 36.55790 | 36910 ft | 440 kts | 135° |
| 2026-05-05 00:10 | 23.36731 | 36.61243 | 36908 ft | 440 kts | 135° |
| 2026-05-05 00:10 | 23.33213 | 36.66698 | 36907 ft | 440 kts | 135° |
| 2026-05-05 00:11 | 23.29694 | 36.72149 | 36905 ft | 440 kts | 135° |
| 2026-05-05 00:11 | 23.26176 | 36.77593 | 36892 ft | 440 kts | 135° |
| 2026-05-05 00:12 | 23.22653 | 36.83037 | 36913 ft | 440 kts | 135° |
| 2026-05-05 00:12 | 23.19151 | 36.88445 | 36906 ft | 440 kts | 135° |
| 2026-05-05 00:13 | 23.15624 | 36.93885 | 36892 ft | 440 kts | 135° |
| 2026-05-05 00:13 | 23.12094 | 36.99323 | 36878 ft | 440 kts | 135° |
| 2026-05-05 00:14 | 23.08566 | 37.04755 | 36894 ft | 440 kts | 135° |
| 2026-05-05 00:14 | 23.05037 | 37.10181 | 36887 ft | 440 kts | 135° |
| 2026-05-05 00:15 | 23.01503 | 37.15606 | 36873 ft | 440 kts | 135° |
| 2026-05-05 00:15 | 22.97962 | 37.21017 | 36889 ft | 439 kts | 135° |
| 2026-05-05 00:16 | 22.94421 | 37.26418 | 36880 ft | 439 kts | 135° |
| 2026-05-05 00:16 | 22.90877 | 37.31819 | 36883 ft | 440 kts | 135° |
| 2026-05-05 00:17 | 22.87328 | 37.37221 | 36878 ft | 440 kts | 135° |
| 2026-05-05 00:17 | 22.83780 | 37.42620 | 36878 ft | 440 kts | 135° |
| 2026-05-05 00:18 | 22.80230 | 37.48015 | 36870 ft | 440 kts | 135° |
| 2026-05-05 00:18 | 22.76674 | 37.53413 | 36873 ft | 440 kts | 135° |
| 2026-05-05 00:19 | 22.73113 | 37.58813 | 36873 ft | 440 kts | 135° |
| 2026-05-05 00:19 | 22.69555 | 37.64214 | 36869 ft | 441 kts | 135° |
| 2026-05-05 00:20 | 22.66007 | 37.69627 | 36869 ft | 441 kts | 134° |
| 2026-05-05 00:20 | 22.62488 | 37.75001 | 36860 ft | 440 kts | 134° |
| 2026-05-05 00:21 | 22.58944 | 37.80404 | 36867 ft | 440 kts | 134° |
| 2026-05-05 00:21 | 22.55402 | 37.85795 | 36863 ft | 440 kts | 134° |
| 2026-05-05 00:22 | 22.51854 | 37.91188 | 36859 ft | 440 kts | 134° |
| 2026-05-05 00:22 | 22.48309 | 37.96573 | 36849 ft | 440 kts | 134° |
| 2026-05-05 00:23 | 22.44764 | 38.01952 | 36858 ft | 438 kts | 134° |
| 2026-05-05 00:23 | 22.41228 | 38.07313 | 36874 ft | 438 kts | 134° |
| 2026-05-05 00:24 | 22.37688 | 38.12672 | 36868 ft | 438 kts | 134° |
| 2026-05-05 00:24 | 22.34148 | 38.18026 | 36853 ft | 438 kts | 134° |
| 2026-05-05 00:25 | 22.30607 | 38.23376 | 36856 ft | 438 kts | 134° |
| 2026-05-05 00:25 | 22.27069 | 38.28719 | 36851 ft | 437 kts | 134° |
| 2026-05-05 00:26 | 22.23552 | 38.34020 | 36849 ft | 437 kts | 134° |
| 2026-05-05 00:26 | 22.20009 | 38.39356 | 36847 ft | 437 kts | 134° |
| 2026-05-05 00:27 | 22.16468 | 38.44685 | 36849 ft | 437 kts | 134° |
| 2026-05-05 00:27 | 22.12923 | 38.50014 | 36847 ft | 437 kts | 134° |
| 2026-05-05 00:28 | 22.09379 | 38.55337 | 36847 ft | 437 kts | 134° |
| 2026-05-05 00:28 | 22.05833 | 38.60657 | 36847 ft | 437 kts | 134° |
| 2026-05-05 00:29 | 22.02288 | 38.65970 | 36831 ft | 437 kts | 134° |
| 2026-05-05 00:29 | 21.98743 | 38.71280 | 36841 ft | 436 kts | 134° |
| 2026-05-05 00:30 | 21.95199 | 38.76581 | 36844 ft | 436 kts | 134° |
| 2026-05-05 00:30 | 21.91655 | 38.81876 | 36844 ft | 436 kts | 134° |
| 2026-05-05 00:31 | 21.88110 | 38.87169 | 36844 ft | 436 kts | 134° |
| 2026-05-05 00:31 | 21.84563 | 38.92460 | 36837 ft | 436 kts | 134° |
| 2026-05-05 00:32 | 21.81012 | 38.97750 | 36838 ft | 436 kts | 134° |
| 2026-05-05 00:32 | 21.77461 | 39.03038 | 36833 ft | 436 kts | 134° |
| 2026-05-05 00:33 | 21.73527 | 39.07839 | 36829 ft | 419 kts | 149° |
| 2026-05-05 00:33 | 21.71191 | 39.09642 | 36820 ft | 408 kts | 159° |
| 2026-05-05 00:33 | 21.68676 | 39.10963 | 36829 ft | 397 kts | 169° |
| 2026-05-05 00:34 | 21.63421 | 39.12109 | 36831 ft | 378 kts | 186° |
| 2026-05-05 00:34 | 21.58182 | 39.12099 | 36829 ft | 376 kts | 189° |
| 2026-05-05 00:35 | 21.52958 | 39.11904 | 36831 ft | 376 kts | 190° |
| 2026-05-05 00:35 | 21.47735 | 39.11720 | 36832 ft | 376 kts | 189° |
| 2026-05-05 00:36 | 21.42533 | 39.11571 | 36835 ft | 377 kts | 189° |
| 2026-05-05 00:36 | 21.37274 | 39.11437 | 36837 ft | 378 kts | 189° |
| 2026-05-05 00:37 | 21.32012 | 39.11306 | 36844 ft | 378 kts | 189° |
| 2026-05-05 00:37 | 21.26751 | 39.11174 | 36842 ft | 378 kts | 189° |
| 2026-05-05 00:38 | 21.21489 | 39.11041 | 36845 ft | 378 kts | 189° |
| 2026-05-05 00:38 | 21.16218 | 39.10906 | 36846 ft | 380 kts | 189° |
| 2026-05-05 00:39 | 21.10919 | 39.10770 | 36847 ft | 381 kts | 188° |
| 2026-05-05 00:39 | 21.05610 | 39.10636 | 36848 ft | 381 kts | 188° |
| 2026-05-05 00:40 | 21.00304 | 39.10502 | 36845 ft | 381 kts | 188° |
| 2026-05-05 00:40 | 20.95001 | 39.10368 | 36846 ft | 381 kts | 188° |
| 2026-05-05 00:41 | 20.89684 | 39.10232 | 36840 ft | 383 kts | 188° |
| 2026-05-05 00:41 | 20.84344 | 39.10096 | 36843 ft | 384 kts | 188° |
| 2026-05-05 00:42 | 20.78999 | 39.09962 | 36840 ft | 384 kts | 188° |
| 2026-05-05 00:42 | 20.73652 | 39.09828 | 36840 ft | 384 kts | 188° |
| 2026-05-05 00:43 | 20.68309 | 39.09693 | 36829 ft | 384 kts | 188° |
| 2026-05-05 00:43 | 20.62950 | 39.09557 | 36840 ft | 386 kts | 188° |
| 2026-05-05 00:44 | 20.57582 | 39.09421 | 36840 ft | 386 kts | 188° |
| 2026-05-05 00:44 | 20.52204 | 39.09287 | 36840 ft | 386 kts | 188° |
| 2026-05-05 00:45 | 20.46835 | 39.09152 | 36840 ft | 386 kts | 188° |
| 2026-05-05 00:45 | 20.41462 | 39.09017 | 36836 ft | 386 kts | 187° |
| 2026-05-05 00:46 | 20.36080 | 39.08881 | 36840 ft | 387 kts | 187° |
| 2026-05-05 00:46 | 20.30734 | 39.08747 | 36840 ft | 387 kts | 187° |
| 2026-05-05 00:47 | 20.25349 | 39.08613 | 36839 ft | 387 kts | 187° |
| 2026-05-05 00:47 | 20.19966 | 39.08478 | 36840 ft | 387 kts | 187° |
| 2026-05-05 00:48 | 20.14581 | 39.08342 | 36838 ft | 387 kts | 187° |
| 2026-05-05 00:48 | 20.09191 | 39.08207 | 36840 ft | 388 kts | 187° |
| 2026-05-05 00:49 | 20.03798 | 39.08073 | 36838 ft | 388 kts | 187° |
| 2026-05-05 00:49 | 19.98407 | 39.07938 | 36840 ft | 388 kts | 187° |
| 2026-05-05 00:50 | 19.93016 | 39.07804 | 36842 ft | 388 kts | 187° |
| 2026-05-05 00:50 | 19.87623 | 39.07669 | 36842 ft | 388 kts | 187° |
| 2026-05-05 00:51 | 19.82217 | 39.07533 | 36843 ft | 389 kts | 187° |
| 2026-05-05 00:51 | 19.76809 | 39.07398 | 36842 ft | 389 kts | 187° |
| 2026-05-05 00:52 | 19.71404 | 39.07264 | 36843 ft | 389 kts | 187° |
| 2026-05-05 00:52 | 19.65995 | 39.07129 | 36843 ft | 389 kts | 187° |
| 2026-05-05 00:53 | 19.60589 | 39.06995 | 36842 ft | 389 kts | 187° |
| 2026-05-05 00:53 | 19.55181 | 39.06860 | 36842 ft | 389 kts | 187° |
| 2026-05-05 00:54 | 19.49774 | 39.06726 | 36843 ft | 389 kts | 187° |
| 2026-05-05 00:54 | 19.44370 | 39.06592 | 36847 ft | 389 kts | 187° |
| 2026-05-05 00:55 | 19.38963 | 39.06458 | 36830 ft | 389 kts | 187° |
| 2026-05-05 00:55 | 19.34465 | 39.06346 | 36854 ft | 390 kts | 186° |
| 2026-05-05 00:56 | 19.29034 | 39.06211 | 36843 ft | 390 kts | 186° |
| 2026-05-05 00:56 | 19.23602 | 39.06077 | 36843 ft | 390 kts | 186° |
| 2026-05-05 00:57 | 19.18174 | 39.05943 | 36845 ft | 390 kts | 186° |
| 2026-05-05 00:57 | 19.12741 | 39.05804 | 36842 ft | 390 kts | 187° |
| 2026-05-05 00:58 | 19.07317 | 39.05550 | 36848 ft | 390 kts | 188° |
| 2026-05-05 00:58 | 19.01892 | 39.05231 | 36852 ft | 391 kts | 188° |
| 2026-05-05 00:59 | 18.96499 | 39.04915 | 36840 ft | 391 kts | 188° |
| 2026-05-05 00:59 | 18.91070 | 39.04607 | 36854 ft | 391 kts | 188° |
| 2026-05-05 01:00 | 18.85640 | 39.04305 | 36838 ft | 391 kts | 187° |
| 2026-05-05 01:00 | 18.80198 | 39.04003 | 36857 ft | 392 kts | 187° |
| 2026-05-05 01:01 | 18.74740 | 39.03701 | 36850 ft | 393 kts | 187° |
| 2026-05-05 01:01 | 18.69283 | 39.03399 | 36847 ft | 393 kts | 187° |
| 2026-05-05 01:02 | 18.63822 | 39.03096 | 36848 ft | 393 kts | 187° |
| 2026-05-05 01:02 | 18.58363 | 39.02793 | 36857 ft | 393 kts | 187° |
| 2026-05-05 01:03 | 18.52886 | 39.02490 | 36850 ft | 394 kts | 187° |
| 2026-05-05 01:03 | 18.47404 | 39.02187 | 36854 ft | 395 kts | 187° |
| 2026-05-05 01:04 | 18.41924 | 39.01884 | 36857 ft | 395 kts | 187° |
| 2026-05-05 01:04 | 18.33700 | 39.01430 | 36848 ft | 395 kts | 186° |
| 2026-05-05 01:05 | 18.28204 | 39.01125 | 36851 ft | 396 kts | 187° |
| 2026-05-05 01:05 | 18.22699 | 39.00822 | 36853 ft | 396 kts | 187° |
| 2026-05-05 01:06 | 18.17189 | 39.00521 | 36853 ft | 396 kts | 186° |
| 2026-05-05 01:06 | 18.11674 | 39.00289 | 36850 ft | 397 kts | 186° |
| 2026-05-05 01:07 | 18.06191 | 39.00101 | 36852 ft | 397 kts | 185° |
| 2026-05-05 01:07 | 18.00628 | 38.99911 | 36853 ft | 398 kts | 185° |
| 2026-05-05 01:08 | 17.95130 | 38.99717 | 36850 ft | 398 kts | 185° |
| 2026-05-05 01:08 | 17.89596 | 38.99518 | 36853 ft | 398 kts | 185° |
| 2026-05-05 01:09 | 17.84066 | 38.99318 | 36851 ft | 398 kts | 185° |
| 2026-05-05 01:09 | 17.78529 | 38.99119 | 36849 ft | 398 kts | 185° |
| 2026-05-05 01:10 | 17.72995 | 38.98920 | 36850 ft | 398 kts | 185° |
| 2026-05-05 01:10 | 17.67457 | 38.98721 | 36851 ft | 398 kts | 185° |
| 2026-05-05 01:11 | 17.61920 | 38.98522 | 36851 ft | 398 kts | 185° |
| 2026-05-05 01:11 | 17.56384 | 38.98324 | 36851 ft | 398 kts | 185° |
| 2026-05-05 01:12 | 17.50846 | 38.98125 | 36852 ft | 398 kts | 185° |
| 2026-05-05 01:12 | 17.45300 | 38.97926 | 36854 ft | 399 kts | 185° |
| 2026-05-05 01:13 | 17.39750 | 38.97726 | 36854 ft | 399 kts | 185° |
| 2026-05-05 01:13 | 17.34202 | 38.97523 | 36853 ft | 399 kts | 185° |
| 2026-05-05 01:14 | 17.28654 | 38.97320 | 36854 ft | 399 kts | 185° |
| 2026-05-05 01:14 | 17.23105 | 38.97117 | 36855 ft | 399 kts | 185° |
| 2026-05-05 01:15 | 17.17545 | 38.96914 | 36857 ft | 400 kts | 185° |
| 2026-05-05 01:15 | 17.11989 | 38.96711 | 36856 ft | 400 kts | 185° |
| 2026-05-05 01:16 | 17.06432 | 38.96509 | 36856 ft | 400 kts | 185° |
| 2026-05-05 01:16 | 17.00911 | 38.96307 | 36857 ft | 400 kts | 185° |
| 2026-05-05 01:17 | 16.95351 | 38.96105 | 36856 ft | 400 kts | 185° |
| 2026-05-05 01:17 | 16.89793 | 38.95903 | 36860 ft | 400 kts | 185° |
| 2026-05-05 01:18 | 16.84232 | 38.95701 | 36859 ft | 400 kts | 185° |
| 2026-05-05 01:18 | 16.78674 | 38.95498 | 36860 ft | 400 kts | 185° |
| 2026-05-05 01:19 | 16.73113 | 38.95296 | 36860 ft | 400 kts | 185° |
| 2026-05-05 01:19 | 16.67549 | 38.95094 | 36865 ft | 401 kts | 185° |
| 2026-05-05 01:20 | 16.61974 | 38.94891 | 36867 ft | 401 kts | 185° |
| 2026-05-05 01:20 | 16.56394 | 38.94689 | 36866 ft | 401 kts | 185° |
| 2026-05-05 01:21 | 16.50820 | 38.94487 | 36871 ft | 401 kts | 185° |
| 2026-05-05 01:21 | 16.45243 | 38.94286 | 36866 ft | 401 kts | 185° |
| 2026-05-05 01:22 | 16.39658 | 38.94083 | 36870 ft | 402 kts | 185° |
| 2026-05-05 01:22 | 16.34068 | 38.93881 | 36870 ft | 402 kts | 185° |
| 2026-05-05 01:23 | 16.28480 | 38.93679 | 36894 ft | 402 kts | 185° |
| 2026-05-05 01:23 | 16.22888 | 38.93477 | 36897 ft | 402 kts | 185° |
| 2026-05-05 01:24 | 16.17296 | 38.93275 | 36896 ft | 402 kts | 185° |
| 2026-05-05 01:24 | 16.11695 | 38.93073 | 36898 ft | 403 kts | 185° |
| 2026-05-05 01:25 | 16.06090 | 38.92870 | 36910 ft | 403 kts | 185° |
| 2026-05-05 01:25 | 16.00523 | 38.92669 | 36906 ft | 403 kts | 185° |
| 2026-05-05 01:26 | 15.94916 | 38.92468 | 36919 ft | 403 kts | 185° |
| 2026-05-05 01:26 | 15.89312 | 38.92266 | 36918 ft | 403 kts | 185° |
| 2026-05-05 01:27 | 15.83691 | 38.92063 | 36934 ft | 404 kts | 185° |
| 2026-05-05 01:27 | 15.78069 | 38.91860 | 36931 ft | 404 kts | 185° |
| 2026-05-05 01:28 | 15.72448 | 38.91658 | 36939 ft | 404 kts | 185° |
| 2026-05-05 01:28 | 15.66825 | 38.91456 | 36945 ft | 404 kts | 184° |
| 2026-05-05 01:29 | 15.61204 | 38.91255 | 36952 ft | 404 kts | 184° |
| 2026-05-05 01:29 | 15.55576 | 38.91051 | 36956 ft | 405 kts | 184° |
| 2026-05-05 01:30 | 15.49941 | 38.90849 | 36970 ft | 405 kts | 184° |
| 2026-05-05 01:30 | 15.44310 | 38.90648 | 36964 ft | 405 kts | 184° |
| 2026-05-05 01:31 | 15.38677 | 38.90446 | 36981 ft | 405 kts | 184° |
| 2026-05-05 01:31 | 15.33038 | 38.90245 | 36974 ft | 405 kts | 184° |
| 2026-05-05 01:32 | 15.27394 | 38.90063 | 36986 ft | 406 kts | 183° |
| 2026-05-05 01:32 | 15.21740 | 38.90030 | 36986 ft | 406 kts | 182° |
| 2026-05-05 01:33 | 15.16083 | 38.90048 | 36991 ft | 407 kts | 182° |
| 2026-05-05 01:33 | 15.10428 | 38.90058 | 36994 ft | 406 kts | 182° |
| 2026-05-05 01:34 | 15.04771 | 38.90057 | 36999 ft | 407 kts | 182° |
| 2026-05-05 01:34 | 14.99110 | 38.90051 | 37001 ft | 407 kts | 182° |
| 2026-05-05 01:35 | 14.93451 | 38.90044 | 36985 ft | 407 kts | 182° |
| 2026-05-05 01:35 | 14.87790 | 38.90038 | 36980 ft | 407 kts | 182° |
| 2026-05-05 01:36 | 14.82131 | 38.90032 | 36976 ft | 407 kts | 182° |
| 2026-05-05 01:36 | 14.76470 | 38.90025 | 36983 ft | 407 kts | 182° |
| 2026-05-05 01:37 | 14.70800 | 38.90020 | 36985 ft | 407 kts | 182° |
| 2026-05-05 01:37 | 14.65171 | 38.90014 | 36982 ft | 407 kts | 182° |
| 2026-05-05 01:38 | 14.59505 | 38.90009 | 36970 ft | 407 kts | 182° |
| 2026-05-05 01:38 | 14.53834 | 38.90003 | 36982 ft | 407 kts | 182° |
| 2026-05-05 01:39 | 14.48162 | 38.89987 | 36992 ft | 408 kts | 182° |
| 2026-05-05 01:39 | 14.42492 | 38.89929 | 36982 ft | 407 kts | 182° |
| 2026-05-05 01:40 | 14.36819 | 38.89860 | 36990 ft | 408 kts | 182° |
| 2026-05-05 01:40 | 14.31148 | 38.89794 | 36983 ft | 408 kts | 182° |
| 2026-05-05 01:41 | 14.25474 | 38.89732 | 36994 ft | 408 kts | 182° |
| 2026-05-05 01:41 | 14.19803 | 38.89671 | 36995 ft | 408 kts | 182° |
| 2026-05-05 01:42 | 14.14132 | 38.89609 | 36994 ft | 408 kts | 182° |
| 2026-05-05 01:42 | 14.08459 | 38.89547 | 37004 ft | 408 kts | 182° |
| 2026-05-05 01:43 | 14.02789 | 38.89481 | 36997 ft | 407 kts | 182° |
| 2026-05-05 01:43 | 13.97121 | 38.89384 | 37002 ft | 407 kts | 182° |
| 2026-05-05 01:44 | 13.91450 | 38.89276 | 37002 ft | 408 kts | 182° |
| 2026-05-05 01:44 | 13.86734 | 38.89188 | 36998 ft | 408 kts | 182° |
| 2026-05-05 01:45 | 13.81059 | 38.89084 | 36998 ft | 408 kts | 182° |
| 2026-05-05 01:45 | 13.75380 | 38.88982 | 36999 ft | 408 kts | 182° |
| 2026-05-05 01:46 | 13.69698 | 38.88879 | 36986 ft | 408 kts | 182° |
| 2026-05-05 01:46 | 13.64020 | 38.88777 | 36990 ft | 408 kts | 182° |
| 2026-05-05 01:47 | 13.58339 | 38.88675 | 36992 ft | 408 kts | 182° |
| 2026-05-05 01:47 | 13.52659 | 38.88573 | 36994 ft | 408 kts | 182° |
| 2026-05-05 01:48 | 13.46977 | 38.88471 | 36992 ft | 408 kts | 182° |
| 2026-05-05 01:48 | 13.41294 | 38.88368 | 36991 ft | 408 kts | 182° |
| 2026-05-05 01:49 | 13.35610 | 38.88266 | 36990 ft | 409 kts | 182° |
| 2026-05-05 01:49 | 13.29922 | 38.88164 | 36990 ft | 409 kts | 182° |
| 2026-05-05 01:50 | 13.24231 | 38.88062 | 36993 ft | 409 kts | 182° |
| 2026-05-05 01:50 | 13.18543 | 38.87960 | 36991 ft | 409 kts | 182° |
| 2026-05-05 01:51 | 13.12852 | 38.87858 | 36988 ft | 409 kts | 182° |
| 2026-05-05 01:51 | 13.07196 | 38.87756 | 36994 ft | 409 kts | 182° |
| 2026-05-05 01:52 | 13.01500 | 38.87654 | 36996 ft | 409 kts | 182° |
| 2026-05-05 01:52 | 12.95803 | 38.87552 | 37005 ft | 409 kts | 182° |
| 2026-05-05 01:53 | 12.90105 | 38.87434 | 37004 ft | 410 kts | 182° |
| 2026-05-05 01:53 | 12.84407 | 38.87274 | 37010 ft | 409 kts | 182° |
| 2026-05-05 01:54 | 12.78710 | 38.87107 | 37010 ft | 410 kts | 182° |
| 2026-05-05 01:54 | 12.73012 | 38.86943 | 37016 ft | 410 kts | 182° |
| 2026-05-05 01:55 | 12.67311 | 38.86783 | 37015 ft | 410 kts | 182° |
| 2026-05-05 01:55 | 12.61611 | 38.86623 | 37031 ft | 410 kts | 182° |
| 2026-05-05 01:56 | 12.55911 | 38.86464 | 37029 ft | 410 kts | 182° |
| 2026-05-05 01:56 | 12.50215 | 38.86305 | 37041 ft | 409 kts | 182° |
| 2026-05-05 01:57 | 12.44523 | 38.86146 | 37040 ft | 409 kts | 182° |
| 2026-05-05 01:57 | 12.38827 | 38.85986 | 37043 ft | 409 kts | 182° |
| 2026-05-05 01:58 | 12.33132 | 38.85827 | 37048 ft | 409 kts | 182° |
| 2026-05-05 01:58 | 12.27439 | 38.85669 | 37050 ft | 409 kts | 182° |
| 2026-05-05 01:59 | 12.21793 | 38.85513 | 37052 ft | 408 kts | 182° |
| 2026-05-05 01:59 | 12.16111 | 38.85356 | 37056 ft | 409 kts | 182° |
| 2026-05-05 02:00 | 12.10427 | 38.85199 | 37057 ft | 409 kts | 182° |
| 2026-05-05 02:00 | 12.04744 | 38.85041 | 37059 ft | 409 kts | 182° |
| 2026-05-05 02:01 | 11.99061 | 38.84885 | 37056 ft | 408 kts | 182° |
| 2026-05-05 02:01 | 11.93381 | 38.84728 | 37061 ft | 408 kts | 182° |
| 2026-05-05 02:02 | 11.87702 | 38.84570 | 37055 ft | 408 kts | 182° |
| 2026-05-05 02:02 | 11.82026 | 38.84414 | 37056 ft | 408 kts | 182° |
| 2026-05-05 02:03 | 11.76349 | 38.84258 | 37055 ft | 408 kts | 182° |
| 2026-05-05 02:03 | 11.70676 | 38.84101 | 37052 ft | 408 kts | 182° |
| 2026-05-05 02:04 | 11.64988 | 38.83945 | 37054 ft | 409 kts | 182° |
| 2026-05-05 02:04 | 11.59297 | 38.83788 | 37056 ft | 409 kts | 182° |
| 2026-05-05 02:05 | 11.53609 | 38.83631 | 37054 ft | 409 kts | 182° |
| 2026-05-05 02:05 | 11.47917 | 38.83475 | 37051 ft | 409 kts | 182° |
| 2026-05-05 02:06 | 11.42229 | 38.83318 | 37049 ft | 409 kts | 182° |
| 2026-05-05 02:06 | 11.36539 | 38.83161 | 37049 ft | 409 kts | 182° |
| 2026-05-05 02:07 | 11.30849 | 38.83005 | 37048 ft | 409 kts | 182° |
| 2026-05-05 02:07 | 11.25156 | 38.82848 | 37044 ft | 409 kts | 182° |
| 2026-05-05 02:08 | 11.19507 | 38.82693 | 37042 ft | 409 kts | 182° |
| 2026-05-05 02:08 | 11.13812 | 38.82536 | 37048 ft | 410 kts | 182° |
| 2026-05-05 02:09 | 11.08106 | 38.82379 | 37040 ft | 411 kts | 182° |
| 2026-05-05 02:09 | 11.02387 | 38.82222 | 37047 ft | 411 kts | 182° |
| 2026-05-05 02:10 | 10.96662 | 38.82065 | 37052 ft | 411 kts | 182° |
| 2026-05-05 02:10 | 10.90939 | 38.81908 | 37049 ft | 411 kts | 182° |
| 2026-05-05 02:11 | 10.85218 | 38.81751 | 37051 ft | 411 kts | 182° |
| 2026-05-05 02:11 | 10.79499 | 38.81594 | 37049 ft | 411 kts | 182° |
| 2026-05-05 02:12 | 10.70922 | 38.81359 | 37043 ft | 411 kts | 182° |
| 2026-05-05 02:13 | 10.65199 | 38.81203 | 37030 ft | 411 kts | 182° |
| 2026-05-05 02:13 | 10.59484 | 38.81046 | 37034 ft | 411 kts | 182° |
| 2026-05-05 02:14 | 10.53769 | 38.80890 | 37027 ft | 410 kts | 182° |
| 2026-05-05 02:14 | 10.48065 | 38.80734 | 37026 ft | 410 kts | 182° |
| 2026-05-05 02:15 | 10.42364 | 38.80578 | 37020 ft | 410 kts | 182° |
| 2026-05-05 02:15 | 10.36662 | 38.80422 | 37018 ft | 410 kts | 182° |
| 2026-05-05 02:16 | 10.30958 | 38.80266 | 37014 ft | 410 kts | 182° |
| 2026-05-05 02:16 | 10.25252 | 38.80110 | 37013 ft | 410 kts | 182° |
| 2026-05-05 02:17 | 10.19545 | 38.79954 | 37016 ft | 410 kts | 182° |
| 2026-05-05 02:17 | 10.13840 | 38.79799 | 37014 ft | 410 kts | 182° |
| 2026-05-05 02:18 | 10.08174 | 38.79644 | 37016 ft | 410 kts | 182° |
| 2026-05-05 02:18 | 10.02431 | 38.79488 | 37015 ft | 410 kts | 182° |
| 2026-05-05 02:19 | 9.96764 | 38.79333 | 37029 ft | 409 kts | 182° |
| 2026-05-05 02:19 | 9.91074 | 38.79178 | 37026 ft | 409 kts | 182° |
| 2026-05-05 02:20 | 9.85387 | 38.79023 | 37041 ft | 409 kts | 182° |
| 2026-05-05 02:20 | 9.79697 | 38.78868 | 37038 ft | 409 kts | 182° |
| 2026-05-05 02:21 | 9.74007 | 38.78713 | 37049 ft | 409 kts | 182° |
| 2026-05-05 02:21 | 9.68323 | 38.78558 | 37050 ft | 408 kts | 182° |
| 2026-05-05 02:22 | 9.62652 | 38.78404 | 37069 ft | 407 kts | 182° |
| 2026-05-05 02:22 | 9.56985 | 38.78250 | 37071 ft | 407 kts | 182° |
| 2026-05-05 02:23 | 9.51317 | 38.78096 | 37081 ft | 407 kts | 182° |
| 2026-05-05 02:23 | 9.45652 | 38.77942 | 37076 ft | 407 kts | 182° |
| 2026-05-05 02:24 | 9.39989 | 38.77788 | 37084 ft | 406 kts | 182° |
| 2026-05-05 02:24 | 9.34341 | 38.77635 | 37090 ft | 406 kts | 182° |
| 2026-05-05 02:25 | 9.28694 | 38.77481 | 37086 ft | 406 kts | 182° |
| 2026-05-05 02:25 | 9.23053 | 38.77328 | 37088 ft | 406 kts | 181° |
| 2026-05-05 02:26 | 9.17406 | 38.77175 | 37083 ft | 406 kts | 181° |
| 2026-05-05 02:26 | 9.11764 | 38.76959 | 37265 ft | 405 kts | 187° |
| 2026-05-05 02:27 | 9.06230 | 38.75904 | 37314 ft | 405 kts | 193° |
| 2026-05-05 02:27 | 9.00755 | 38.74564 | 37315 ft | 405 kts | 194° |
| 2026-05-05 02:28 | 8.95288 | 38.73168 | 37319 ft | 405 kts | 194° |
| 2026-05-05 02:28 | 8.89822 | 38.71779 | 37298 ft | 405 kts | 194° |
| 2026-05-05 02:29 | 8.84354 | 38.70404 | 37246 ft | 405 kts | 194° |
| 2026-05-05 02:29 | 8.78927 | 38.69045 | 37198 ft | 404 kts | 194° |
| 2026-05-05 02:30 | 8.73466 | 38.67677 | 37140 ft | 404 kts | 194° |
| 2026-05-05 02:30 | 8.68011 | 38.66312 | 37086 ft | 404 kts | 194° |
| 2026-05-05 02:31 | 8.62549 | 38.64945 | 37044 ft | 404 kts | 194° |
| 2026-05-05 02:31 | 8.57077 | 38.63575 | 37041 ft | 405 kts | 194° |
| 2026-05-05 02:32 | 8.51599 | 38.62204 | 37046 ft | 405 kts | 194° |
| 2026-05-05 02:32 | 8.46124 | 38.60835 | 37048 ft | 405 kts | 194° |
| 2026-05-05 02:33 | 8.40645 | 38.59465 | 37040 ft | 406 kts | 194° |
| 2026-05-05 02:33 | 8.35172 | 38.58097 | 37041 ft | 405 kts | 194° |
| 2026-05-05 02:34 | 8.29691 | 38.56727 | 37036 ft | 406 kts | 194° |
| 2026-05-05 02:34 | 8.25099 | 38.55580 | 37039 ft | 406 kts | 194° |
| 2026-05-05 02:35 | 8.19551 | 38.54565 | 37034 ft | 406 kts | 182° |
| 2026-05-05 02:35 | 8.13998 | 38.55199 | 37031 ft | 407 kts | 166° |
| 2026-05-05 02:36 | 8.08578 | 38.56872 | 37030 ft | 408 kts | 162° |
| 2026-05-05 02:36 | 8.03205 | 38.58736 | 37019 ft | 408 kts | 161° |
| 2026-05-05 02:37 | 7.97831 | 38.60600 | 37016 ft | 409 kts | 161° |
| 2026-05-05 02:37 | 7.92441 | 38.62438 | 37014 ft | 409 kts | 162° |
| 2026-05-05 02:38 | 7.87040 | 38.64261 | 37012 ft | 409 kts | 162° |
| 2026-05-05 02:38 | 7.81639 | 38.66081 | 37002 ft | 409 kts | 162° |
| 2026-05-05 02:39 | 7.76238 | 38.67901 | 37002 ft | 409 kts | 162° |
| 2026-05-05 02:39 | 7.70839 | 38.69722 | 37005 ft | 409 kts | 162° |
| 2026-05-05 02:40 | 7.65449 | 38.71539 | 37010 ft | 408 kts | 162° |
| 2026-05-05 02:40 | 7.60073 | 38.73351 | 37008 ft | 407 kts | 162° |
| 2026-05-05 02:41 | 7.54701 | 38.75161 | 37016 ft | 407 kts | 162° |
| 2026-05-05 02:41 | 7.49324 | 38.76972 | 37024 ft | 407 kts | 162° |
| 2026-05-05 02:42 | 7.43952 | 38.78781 | 37040 ft | 407 kts | 162° |
| 2026-05-05 02:42 | 7.38575 | 38.80592 | 37045 ft | 407 kts | 162° |
| 2026-05-05 02:43 | 7.33211 | 38.82398 | 37055 ft | 406 kts | 162° |
| 2026-05-05 02:43 | 7.27895 | 38.84187 | 37056 ft | 405 kts | 162° |
| 2026-05-05 02:44 | 7.22544 | 38.85988 | 37077 ft | 406 kts | 162° |
| 2026-05-05 02:44 | 7.17188 | 38.87790 | 37084 ft | 406 kts | 162° |
| 2026-05-05 02:45 | 7.11838 | 38.89590 | 37085 ft | 406 kts | 162° |
| 2026-05-05 02:45 | 7.06486 | 38.91390 | 37091 ft | 405 kts | 162° |
| 2026-05-05 02:46 | 7.01149 | 38.93185 | 37092 ft | 404 kts | 162° |
| 2026-05-05 02:46 | 6.95813 | 38.94979 | 37109 ft | 405 kts | 162° |
| 2026-05-05 02:47 | 6.90475 | 38.96773 | 37102 ft | 405 kts | 162° |
| 2026-05-05 02:47 | 6.85127 | 38.98571 | 37108 ft | 405 kts | 162° |
| 2026-05-05 02:48 | 6.79784 | 39.00366 | 37107 ft | 405 kts | 162° |
| 2026-05-05 02:48 | 6.74436 | 39.02162 | 37107 ft | 406 kts | 162° |
| 2026-05-05 02:49 | 6.69074 | 39.03963 | 37102 ft | 406 kts | 162° |
| 2026-05-05 02:49 | 6.63714 | 39.05762 | 37105 ft | 406 kts | 162° |
| 2026-05-05 02:50 | 6.58382 | 39.07552 | 37096 ft | 406 kts | 162° |
| 2026-05-05 02:50 | 6.53014 | 39.09354 | 37092 ft | 407 kts | 162° |
| 2026-05-05 02:51 | 6.47645 | 39.11155 | 37084 ft | 407 kts | 162° |
| 2026-05-05 02:51 | 6.42257 | 39.12962 | 37080 ft | 409 kts | 161° |
| 2026-05-05 02:52 | 6.36850 | 39.14775 | 37071 ft | 410 kts | 161° |
| 2026-05-05 02:52 | 6.31362 | 39.16615 | 37069 ft | 422 kts | 161° |
| 2026-05-05 02:53 | 6.25748 | 39.18497 | 37072 ft | 425 kts | 161° |
| 2026-05-05 02:53 | 6.20162 | 39.20369 | 37070 ft | 422 kts | 161° |
| 2026-05-05 02:54 | 6.14600 | 39.22231 | 37058 ft | 421 kts | 161° |
| 2026-05-05 02:54 | 6.09031 | 39.24096 | 37060 ft | 422 kts | 161° |
| 2026-05-05 02:55 | 6.03456 | 39.25962 | 37059 ft | 423 kts | 161° |
| 2026-05-05 02:55 | 5.97868 | 39.27832 | 37056 ft | 423 kts | 161° |
| 2026-05-05 02:56 | 5.92318 | 39.29688 | 37059 ft | 423 kts | 161° |
| 2026-05-05 02:56 | 5.86737 | 39.31556 | 37057 ft | 422 kts | 162° |
| 2026-05-05 02:57 | 5.81163 | 39.33419 | 37056 ft | 422 kts | 162° |
| 2026-05-05 02:57 | 5.75585 | 39.35284 | 37055 ft | 423 kts | 162° |
| 2026-05-05 02:58 | 5.70001 | 39.37151 | 37054 ft | 423 kts | 162° |
| 2026-05-05 02:58 | 5.64347 | 39.38810 | 37049 ft | 423 kts | 168° |
| 2026-05-05 02:59 | 5.58561 | 39.39900 | 37051 ft | 423 kts | 170° |
| 2026-05-05 02:59 | 5.52757 | 39.40876 | 37040 ft | 423 kts | 171° |
| 2026-05-05 03:00 | 5.46954 | 39.41835 | 37046 ft | 423 kts | 171° |
| 2026-05-05 03:00 | 5.41139 | 39.42804 | 37044 ft | 423 kts | 171° |
| 2026-05-05 03:01 | 5.35334 | 39.43782 | 37041 ft | 423 kts | 171° |
| 2026-05-05 03:01 | 5.29531 | 39.44761 | 37039 ft | 423 kts | 171° |
| 2026-05-05 03:02 | 5.23718 | 39.45741 | 37031 ft | 424 kts | 171° |
| 2026-05-05 03:02 | 5.17897 | 39.46721 | 37030 ft | 424 kts | 171° |
| 2026-05-05 03:03 | 5.12072 | 39.47703 | 37024 ft | 424 kts | 171° |
| 2026-05-05 03:03 | 5.06247 | 39.48684 | 37026 ft | 424 kts | 171° |
| 2026-05-05 03:04 | 5.00418 | 39.49666 | 37018 ft | 424 kts | 171° |
| 2026-05-05 03:04 | 4.94634 | 39.50640 | 37018 ft | 425 kts | 170° |
| 2026-05-05 03:05 | 4.88798 | 39.51623 | 37017 ft | 425 kts | 170° |
| 2026-05-05 03:05 | 4.82966 | 39.52605 | 37016 ft | 425 kts | 170° |
| 2026-05-05 03:06 | 4.77130 | 39.53587 | 37007 ft | 425 kts | 170° |
| 2026-05-05 03:06 | 4.71299 | 39.54569 | 37009 ft | 425 kts | 170° |
| 2026-05-05 03:07 | 4.65466 | 39.55550 | 37011 ft | 425 kts | 170° |
| 2026-05-05 03:07 | 4.59634 | 39.56532 | 37006 ft | 425 kts | 170° |
| 2026-05-05 03:08 | 4.53807 | 39.57512 | 37006 ft | 425 kts | 170° |
| 2026-05-05 03:08 | 4.47974 | 39.58492 | 37011 ft | 425 kts | 169° |
| 2026-05-05 03:09 | 4.42146 | 39.59473 | 37009 ft | 425 kts | 169° |
| 2026-05-05 03:09 | 4.36319 | 39.60453 | 37015 ft | 425 kts | 169° |
| 2026-05-05 03:10 | 4.30491 | 39.61432 | 37020 ft | 425 kts | 169° |
| 2026-05-05 03:10 | 4.24661 | 39.62412 | 37017 ft | 425 kts | 169° |
| 2026-05-05 03:11 | 4.18831 | 39.63391 | 37010 ft | 425 kts | 169° |
| 2026-05-05 03:11 | 4.13002 | 39.64370 | 37017 ft | 425 kts | 169° |
| 2026-05-05 03:12 | 4.07172 | 39.65348 | 37009 ft | 425 kts | 169° |
| 2026-05-05 03:12 | 4.01346 | 39.66326 | 37007 ft | 425 kts | 169° |
| 2026-05-05 03:13 | 3.95568 | 39.67368 | 37011 ft | 425 kts | 168° |
| 2026-05-05 03:13 | 3.89762 | 39.68476 | 37014 ft | 425 kts | 168° |
| 2026-05-05 03:14 | 3.83962 | 39.69585 | 37011 ft | 424 kts | 168° |
| 2026-05-05 03:14 | 3.78158 | 39.70687 | 37011 ft | 424 kts | 168° |
| 2026-05-05 03:15 | 3.72362 | 39.71783 | 37007 ft | 424 kts | 168° |
| 2026-05-05 03:15 | 3.66563 | 39.72878 | 37010 ft | 424 kts | 168° |
| 2026-05-05 03:16 | 3.60764 | 39.73972 | 37004 ft | 424 kts | 168° |
| 2026-05-05 03:16 | 3.54965 | 39.75068 | 37008 ft | 424 kts | 168° |
| 2026-05-05 03:17 | 3.49170 | 39.76162 | 37000 ft | 423 kts | 168° |
| 2026-05-05 03:17 | 3.43388 | 39.77253 | 36998 ft | 422 kts | 168° |
| 2026-05-05 03:18 | 3.37621 | 39.78342 | 37002 ft | 422 kts | 168° |
| 2026-05-05 03:18 | 3.31852 | 39.79432 | 36995 ft | 422 kts | 168° |
| 2026-05-05 03:19 | 3.23196 | 39.81066 | 36994 ft | 422 kts | 167° |
| 2026-05-05 03:19 | 3.17427 | 39.82156 | 36992 ft | 422 kts | 167° |
| 2026-05-05 03:20 | 3.11658 | 39.83245 | 36992 ft | 422 kts | 167° |
| 2026-05-05 03:20 | 3.05887 | 39.84334 | 36991 ft | 422 kts | 167° |
| 2026-05-05 03:21 | 3.00119 | 39.85423 | 36984 ft | 422 kts | 167° |
| 2026-05-05 03:21 | 2.94352 | 39.86512 | 36987 ft | 422 kts | 167° |
| 2026-05-05 03:22 | 2.88622 | 39.87594 | 36981 ft | 422 kts | 167° |
| 2026-05-05 03:22 | 2.82847 | 39.88684 | 36979 ft | 423 kts | 167° |
| 2026-05-05 03:23 | 2.77064 | 39.89776 | 36983 ft | 423 kts | 167° |
| 2026-05-05 03:23 | 2.71288 | 39.90866 | 36983 ft | 423 kts | 167° |
| 2026-05-05 03:24 | 2.65505 | 39.91957 | 36979 ft | 423 kts | 167° |
| 2026-05-05 03:24 | 2.59726 | 39.93048 | 36982 ft | 423 kts | 167° |
| 2026-05-05 03:25 | 2.54880 | 39.93948 | 36975 ft | 423 kts | 168° |
| 2026-05-05 03:25 | 2.49127 | 39.94976 | 36976 ft | 423 kts | 168° |
| 2026-05-05 03:26 | 2.43332 | 39.96002 | 36970 ft | 423 kts | 168° |
| 2026-05-05 03:26 | 2.37536 | 39.97033 | 36970 ft | 423 kts | 168° |
| 2026-05-05 03:27 | 2.31743 | 39.98065 | 36971 ft | 423 kts | 168° |
| 2026-05-05 03:27 | 2.25950 | 39.99099 | 36970 ft | 423 kts | 168° |
| 2026-05-05 03:28 | 2.20150 | 40.00134 | 36967 ft | 423 kts | 168° |
| 2026-05-05 03:28 | 2.14354 | 40.01167 | 36965 ft | 423 kts | 168° |
| 2026-05-05 03:29 | 2.08562 | 40.02200 | 36967 ft | 423 kts | 168° |
| 2026-05-05 03:29 | 2.02767 | 40.03232 | 36964 ft | 423 kts | 168° |
| 2026-05-05 03:30 | 1.96976 | 40.04264 | 36968 ft | 422 kts | 168° |
| 2026-05-05 03:30 | 1.91189 | 40.05295 | 36965 ft | 422 kts | 168° |
| 2026-05-05 03:31 | 1.85400 | 40.06326 | 36967 ft | 422 kts | 168° |
| 2026-05-05 03:31 | 1.79615 | 40.07356 | 36965 ft | 422 kts | 168° |
| 2026-05-05 03:32 | 1.73773 | 40.08010 | 36964 ft | 424 kts | 180° |
| 2026-05-05 03:32 | 1.67878 | 40.07675 | 36963 ft | 425 kts | 183° |
| 2026-05-05 03:33 | 1.61991 | 40.07140 | 36959 ft | 425 kts | 184° |
| 2026-05-05 03:33 | 1.56105 | 40.06575 | 36957 ft | 425 kts | 184° |
| 2026-05-05 03:34 | 1.50216 | 40.06027 | 36954 ft | 425 kts | 184° |
| 2026-05-05 03:34 | 1.44326 | 40.05492 | 36956 ft | 425 kts | 184° |
| 2026-05-05 03:35 | 1.38477 | 40.04964 | 36957 ft | 425 kts | 184° |
| 2026-05-05 03:35 | 1.32586 | 40.04433 | 36954 ft | 425 kts | 184° |
| 2026-05-05 03:36 | 1.26698 | 40.03901 | 36958 ft | 425 kts | 184° |
| 2026-05-05 03:36 | 1.20814 | 40.03370 | 36961 ft | 425 kts | 184° |
| 2026-05-05 03:37 | 1.14925 | 40.02838 | 36954 ft | 425 kts | 184° |
| 2026-05-05 03:37 | 1.09046 | 40.02307 | 36958 ft | 424 kts | 184° |
| 2026-05-05 03:38 | 1.03170 | 40.01776 | 36957 ft | 424 kts | 184° |
| 2026-05-05 03:38 | 0.97295 | 40.01246 | 36953 ft | 424 kts | 184° |
| 2026-05-05 03:39 | 0.91421 | 40.00719 | 36956 ft | 424 kts | 184° |
| 2026-05-05 03:39 | 0.85547 | 40.00194 | 36952 ft | 424 kts | 183° |
| 2026-05-05 03:40 | 0.79673 | 39.99670 | 36956 ft | 424 kts | 183° |
| 2026-05-05 03:40 | 0.73805 | 39.99146 | 36957 ft | 424 kts | 183° |
| 2026-05-05 03:41 | 0.67934 | 39.98621 | 36955 ft | 424 kts | 183° |
| 2026-05-05 03:41 | 0.62061 | 39.98096 | 36955 ft | 424 kts | 183° |
| 2026-05-05 03:42 | 0.56191 | 39.97571 | 36960 ft | 423 kts | 183° |
| 2026-05-05 03:42 | 0.50366 | 39.97050 | 36954 ft | 423 kts | 183° |
| 2026-05-05 03:43 | 0.44503 | 39.96526 | 36957 ft | 423 kts | 183° |
| 2026-05-05 03:43 | 0.38638 | 39.96001 | 36958 ft | 423 kts | 183° |
| 2026-05-05 03:44 | 0.32779 | 39.95477 | 36962 ft | 423 kts | 183° |
| 2026-05-05 03:44 | 0.26914 | 39.94953 | 36962 ft | 423 kts | 183° |
| 2026-05-05 03:45 | 0.21056 | 39.94428 | 36958 ft | 423 kts | 183° |
| 2026-05-05 03:45 | 0.15200 | 39.93905 | 36962 ft | 422 kts | 183° |
| 2026-05-05 03:46 | 0.09346 | 39.93381 | 36957 ft | 422 kts | 183° |
| 2026-05-05 03:46 | 0.03490 | 39.92857 | 36962 ft | 422 kts | 183° |
| 2026-05-05 03:47 | -0.02369 | 39.92333 | 36962 ft | 422 kts | 183° |
| 2026-05-05 03:47 | -0.08215 | 39.91810 | 36966 ft | 422 kts | 183° |
| 2026-05-05 03:48 | -0.14059 | 39.91287 | 36962 ft | 421 kts | 183° |
| 2026-05-05 03:48 | -0.19898 | 39.90765 | 36962 ft | 421 kts | 183° |
| 2026-05-05 03:49 | -0.25742 | 39.90242 | 36964 ft | 422 kts | 183° |
| 2026-05-05 03:49 | -0.31586 | 39.89721 | 36960 ft | 421 kts | 183° |
| 2026-05-05 03:50 | -0.37431 | 39.89289 | 36963 ft | 421 kts | 181° |
| 2026-05-05 03:50 | -0.43281 | 39.88919 | 36957 ft | 421 kts | 181° |
| 2026-05-05 03:51 | -0.49128 | 39.88551 | 36964 ft | 421 kts | 181° |
| 2026-05-05 03:51 | -0.54977 | 39.88173 | 36963 ft | 421 kts | 181° |
| 2026-05-05 03:52 | -0.60826 | 39.87790 | 36966 ft | 421 kts | 182° |
| 2026-05-05 03:52 | -0.66668 | 39.87406 | 36966 ft | 421 kts | 182° |
| 2026-05-05 03:53 | -0.72470 | 39.87025 | 36960 ft | 421 kts | 182° |
| 2026-05-05 03:53 | -0.78308 | 39.86642 | 36965 ft | 421 kts | 182° |
| 2026-05-05 03:54 | -0.84148 | 39.86259 | 36966 ft | 421 kts | 182° |
| 2026-05-05 03:54 | -0.89986 | 39.85877 | 36963 ft | 420 kts | 182° |
| 2026-05-05 03:55 | -0.95822 | 39.85494 | 36965 ft | 420 kts | 182° |
| 2026-05-05 03:55 | -1.01657 | 39.85112 | 36963 ft | 420 kts | 182° |
| 2026-05-05 03:56 | -1.07490 | 39.84729 | 36973 ft | 420 kts | 182° |
| 2026-05-05 03:56 | -1.13322 | 39.84347 | 36969 ft | 420 kts | 182° |
| 2026-05-05 03:57 | -1.19156 | 39.83964 | 36963 ft | 420 kts | 182° |
| 2026-05-05 03:57 | -1.24983 | 39.83582 | 36968 ft | 419 kts | 182° |
| 2026-05-05 03:58 | -1.30805 | 39.83200 | 36963 ft | 419 kts | 182° |
| 2026-05-05 03:58 | -1.36622 | 39.82819 | 36970 ft | 419 kts | 182° |
| 2026-05-05 03:59 | -1.42442 | 39.82437 | 36965 ft | 419 kts | 182° |
| 2026-05-05 03:59 | -1.48263 | 39.82055 | 36968 ft | 419 kts | 182° |
| 2026-05-05 04:00 | -1.54091 | 39.81673 | 36970 ft | 420 kts | 182° |
| 2026-05-05 04:00 | -1.59928 | 39.81291 | 36968 ft | 420 kts | 182° |
| 2026-05-05 04:01 | -1.65765 | 39.80908 | 36966 ft | 420 kts | 182° |
| 2026-05-05 04:01 | -1.71600 | 39.80525 | 36969 ft | 420 kts | 181° |
| 2026-05-05 04:02 | -1.77435 | 39.80142 | 36963 ft | 420 kts | 181° |
| 2026-05-05 04:02 | -1.83261 | 39.79742 | 36964 ft | 419 kts | 181° |
| 2026-05-05 04:03 | -1.89047 | 39.79338 | 36964 ft | 419 kts | 181° |
| 2026-05-05 04:03 | -1.94867 | 39.78933 | 36965 ft | 419 kts | 181° |
| 2026-05-05 04:04 | -2.00691 | 39.78527 | 36963 ft | 419 kts | 181° |
| 2026-05-05 04:04 | -2.06513 | 39.78122 | 36965 ft | 419 kts | 181° |
| 2026-05-05 04:05 | -2.12330 | 39.77717 | 36964 ft | 419 kts | 181° |
| 2026-05-05 04:05 | -2.18146 | 39.77312 | 36960 ft | 419 kts | 181° |
| 2026-05-05 04:06 | -2.23960 | 39.76907 | 36961 ft | 419 kts | 181° |
| 2026-05-05 04:06 | -2.29774 | 39.76502 | 36966 ft | 419 kts | 181° |
| 2026-05-05 04:07 | -2.35587 | 39.76097 | 36963 ft | 419 kts | 181° |
| 2026-05-05 04:07 | -2.41395 | 39.75693 | 36963 ft | 418 kts | 181° |
| 2026-05-05 04:08 | -2.47200 | 39.75289 | 36963 ft | 418 kts | 181° |
| 2026-05-05 04:08 | -2.53006 | 39.74884 | 36962 ft | 418 kts | 181° |
| 2026-05-05 04:09 | -2.58809 | 39.74480 | 36970 ft | 418 kts | 181° |
| 2026-05-05 04:09 | -2.64599 | 39.74466 | 36972 ft | 415 kts | 173° |
| 2026-05-05 04:10 | -2.70347 | 39.74996 | 36968 ft | 414 kts | 172° |
| 2026-05-05 04:10 | -2.76086 | 39.75542 | 36968 ft | 414 kts | 172° |
| 2026-05-05 04:11 | -2.81790 | 39.76077 | 36965 ft | 414 kts | 172° |
| 2026-05-05 04:11 | -2.87532 | 39.76613 | 36967 ft | 414 kts | 172° |
| 2026-05-05 04:12 | -2.93271 | 39.77148 | 36965 ft | 414 kts | 172° |
| 2026-05-05 04:12 | -2.99013 | 39.77683 | 36966 ft | 415 kts | 172° |
| 2026-05-05 04:13 | -3.04763 | 39.78218 | 36964 ft | 415 kts | 172° |
| 2026-05-05 04:13 | -3.10509 | 39.78753 | 36963 ft | 415 kts | 172° |
| 2026-05-05 04:14 | -3.15285 | 39.79198 | 36963 ft | 415 kts | 172° |
| 2026-05-05 04:14 | -3.21033 | 39.79734 | 36964 ft | 415 kts | 172° |
| 2026-05-05 04:15 | -3.26778 | 39.80269 | 36967 ft | 415 kts | 172° |
| 2026-05-05 04:15 | -3.32523 | 39.80805 | 36966 ft | 415 kts | 172° |
| 2026-05-05 04:16 | -3.38280 | 39.81341 | 36963 ft | 416 kts | 172° |
| 2026-05-05 04:16 | -3.44040 | 39.81878 | 36963 ft | 416 kts | 172° |
| 2026-05-05 04:17 | -3.49808 | 39.81789 | 36968 ft | 420 kts | 189° |
| 2026-05-05 04:17 | -3.55497 | 39.80400 | 36957 ft | 422 kts | 191° |
| 2026-05-05 04:18 | -3.61198 | 39.78992 | 36963 ft | 422 kts | 191° |
| 2026-05-05 04:18 | -3.66907 | 39.77616 | 36960 ft | 422 kts | 191° |
| 2026-05-05 04:19 | -3.72619 | 39.76256 | 36959 ft | 422 kts | 191° |
| 2026-05-05 04:19 | -3.75387 | 39.75276 | 36956 ft | 425 kts | 206° |
| 2026-05-05 04:19 | -3.77980 | 39.73847 | 36958 ft | 426 kts | 207° |
| 2026-05-05 04:20 | -3.83127 | 39.70888 | 36963 ft | 427 kts | 207° |
| 2026-05-05 04:20 | -3.88301 | 39.67946 | 36961 ft | 428 kts | 207° |
| 2026-05-05 04:21 | -3.93495 | 39.65026 | 36967 ft | 428 kts | 207° |
| 2026-05-05 04:21 | -3.98693 | 39.62119 | 36966 ft | 428 kts | 206° |
| 2026-05-05 04:22 | -4.03724 | 39.58920 | 36965 ft | 429 kts | 210° |
| 2026-05-05 04:22 | -4.08674 | 39.55591 | 36965 ft | 430 kts | 214° |
| 2026-05-05 04:23 | -4.11253 | 39.54151 | 36968 ft | 422 kts | 195° |
| 2026-05-05 04:23 | -4.14101 | 39.53626 | 36963 ft | 413 kts | 176° |
| 2026-05-05 04:23 | -4.16901 | 39.54054 | 36963 ft | 405 kts | 157° |
| 2026-05-05 04:23 | -4.19354 | 39.55371 | 36962 ft | 399 kts | 138° |
| 2026-05-05 04:24 | -4.21189 | 39.57419 | 36963 ft | 395 kts | 119° |
| 2026-05-05 04:24 | -4.22202 | 39.59954 | 36954 ft | 393 kts | 99° |
| 2026-05-05 04:24 | -4.22277 | 39.62675 | 36951 ft | 394 kts | 80° |
| 2026-05-05 04:25 | -4.19680 | 39.67424 | 36962 ft | 401 kts | 42° |
| 2026-05-05 04:25 | -4.17299 | 39.68886 | 36964 ft | 407 kts | 22° |
| 2026-05-05 04:25 | -4.14521 | 39.69479 | 36965 ft | 413 kts | 4° |
| 2026-05-05 04:25 | -4.11656 | 39.69119 | 36964 ft | 420 kts | 344° |
| 2026-05-05 04:26 | -4.08957 | 39.68054 | 36969 ft | 424 kts | 339° |
| 2026-05-05 04:26 | -4.03540 | 39.65637 | 36962 ft | 426 kts | 343° |
| 2026-05-05 04:26 | -4.00688 | 39.64919 | 36965 ft | 421 kts | 356° |
| 2026-05-05 04:27 | -3.97781 | 39.64822 | 36968 ft | 417 kts | 6° |
| 2026-05-05 04:27 | -3.94935 | 39.65241 | 36963 ft | 411 kts | 21° |
| 2026-05-05 04:27 | -3.92404 | 39.66496 | 36965 ft | 403 kts | 39° |
| 2026-05-05 04:27 | -3.90394 | 39.68417 | 36963 ft | 399 kts | 53° |
| 2026-05-05 04:28 | -3.88883 | 39.70743 | 36962 ft | 398 kts | 65° |
| 2026-05-05 04:28 | -3.87878 | 39.73316 | 36960 ft | 398 kts | 76° |
| 2026-05-05 04:28 | -3.87383 | 39.76033 | 36960 ft | 397 kts | 86° |
| 2026-05-05 04:29 | -3.87948 | 39.81505 | 36962 ft | 398 kts | 107° |
| 2026-05-05 04:29 | -3.90522 | 39.86396 | 36964 ft | 401 kts | 128° |
| 2026-05-05 04:30 | -3.94776 | 39.90011 | 36962 ft | 407 kts | 149° |
| 2026-05-05 04:30 | -3.97368 | 39.91168 | 36964 ft | 410 kts | 160° |
| 2026-05-05 04:30 | -4.00154 | 39.91804 | 36970 ft | 413 kts | 171° |
| 2026-05-05 04:30 | -4.03038 | 39.91875 | 36966 ft | 417 kts | 182° |
| 2026-05-05 04:31 | -4.05906 | 39.91363 | 36970 ft | 421 kts | 194° |
| 2026-05-05 04:31 | -4.11257 | 39.88885 | 36963 ft | 427 kts | 206° |
| 2026-05-05 04:32 | -4.16483 | 39.86045 | 36967 ft | 428 kts | 205° |
| 2026-05-05 04:32 | -4.21584 | 39.82980 | 36962 ft | 431 kts | 218° |
| 2026-05-05 04:32 | -4.23694 | 39.80846 | 36962 ft | 433 kts | 231° |
| 2026-05-05 04:33 | -4.25290 | 39.78287 | 36961 ft | 435 kts | 244° |
| 2026-05-05 04:33 | -4.26319 | 39.75439 | 36957 ft | 436 kts | 256° |
| 2026-05-05 04:33 | -4.26759 | 39.72433 | 36957 ft | 437 kts | 268° |
| 2026-05-05 04:33 | -4.26604 | 39.69397 | 36957 ft | 437 kts | 279° |
| 2026-05-05 04:34 | -4.25853 | 39.66454 | 36959 ft | 437 kts | 292° |
| 2026-05-05 04:34 | -4.24522 | 39.63731 | 36956 ft | 435 kts | 304° |
| 2026-05-05 04:34 | -4.22672 | 39.61350 | 36952 ft | 432 kts | 316° |
| 2026-05-05 04:34 | -4.20393 | 39.59406 | 36960 ft | 429 kts | 328° |
| 2026-05-05 04:35 | -4.17792 | 39.57974 | 36963 ft | 426 kts | 340° |
| 2026-05-05 04:35 | -4.14980 | 39.57100 | 36961 ft | 422 kts | 352° |
| 2026-05-05 04:35 | -4.12079 | 39.56806 | 36965 ft | 418 kts | 4° |
| 2026-05-05 04:35 | -4.09198 | 39.57087 | 36967 ft | 414 kts | 15° |
| 2026-05-05 04:36 | -4.06458 | 39.57918 | 36966 ft | 410 kts | 26° |
| 2026-05-05 04:36 | -4.01420 | 39.60558 | 36965 ft | 409 kts | 32° |
| 2026-05-05 04:37 | -3.96458 | 39.63355 | 36965 ft | 409 kts | 32° |
| 2026-05-05 04:37 | -3.91800 | 39.66567 | 36963 ft | 405 kts | 46° |
| 2026-05-05 04:37 | -3.89964 | 39.68682 | 36963 ft | 402 kts | 57° |
| 2026-05-05 04:38 | -3.88576 | 39.71094 | 36966 ft | 399 kts | 68° |
| 2026-05-05 04:38 | -3.87290 | 39.76449 | 36962 ft | 397 kts | 88° |
| 2026-05-05 04:39 | -3.88041 | 39.81864 | 36961 ft | 398 kts | 108° |
| 2026-05-05 04:39 | -3.89166 | 39.84399 | 36963 ft | 399 kts | 119° |
| 2026-05-05 04:39 | -3.90752 | 39.86686 | 36962 ft | 401 kts | 129° |
| 2026-05-05 04:39 | -3.92749 | 39.88641 | 36963 ft | 404 kts | 140° |
| 2026-05-05 04:40 | -3.95100 | 39.90195 | 36967 ft | 407 kts | 150° |
| 2026-05-05 04:40 | -3.97728 | 39.91279 | 36966 ft | 410 kts | 161° |
| 2026-05-05 04:40 | -4.00534 | 39.91839 | 36968 ft | 414 kts | 172° |
| 2026-05-05 04:40 | -4.03427 | 39.91837 | 36970 ft | 418 kts | 184° |
| 2026-05-05 04:41 | -4.06286 | 39.91255 | 36972 ft | 422 kts | 195° |
| 2026-05-05 04:41 | -4.11609 | 39.88711 | 36967 ft | 427 kts | 206° |
| 2026-05-05 04:42 | -4.16838 | 39.85869 | 36967 ft | 428 kts | 205° |
| 2026-05-05 04:42 | -4.21910 | 39.82748 | 36900 ft | 430 kts | 215° |
| 2026-05-05 04:42 | -4.24438 | 39.81176 | 36561 ft | 426 kts | 200° |
| 2026-05-05 04:43 | -4.27262 | 39.80410 | 36094 ft | 420 kts | 182° |
| 2026-05-05 04:43 | -4.30178 | 39.80525 | 35457 ft | 423 kts | 165° |
| 2026-05-05 04:43 | -4.32947 | 39.81537 | 34811 ft | 426 kts | 148° |
| 2026-05-05 04:43 | -4.35382 | 39.83224 | 34187 ft | 427 kts | 140° |
| 2026-05-05 04:44 | -4.37693 | 39.85114 | 33542 ft | 430 kts | 139° |
| 2026-05-05 04:44 | -4.39999 | 39.87040 | 32850 ft | 433 kts | 139° |
| 2026-05-05 04:44 | -4.42309 | 39.88985 | 32180 ft | 435 kts | 138° |
| 2026-05-05 04:44 | -4.44482 | 39.91094 | 31541 ft | 435 kts | 126° |
| 2026-05-05 04:45 | -4.45981 | 39.93709 | 30901 ft | 435 kts | 110° |
| 2026-05-05 04:45 | -4.46639 | 39.96653 | 30288 ft | 436 kts | 93° |
| 2026-05-05 04:45 | -4.46448 | 39.99683 | 29610 ft | 437 kts | 80° |
| 2026-05-05 04:45 | -4.45642 | 40.02623 | 28904 ft | 438 kts | 70° |
| 2026-05-05 04:46 | -4.44541 | 40.05471 | 28212 ft | 439 kts | 69° |
| 2026-05-05 04:46 | -4.43399 | 40.08308 | 27531 ft | 439 kts | 68° |
| 2026-05-05 04:46 | -4.42260 | 40.11138 | 26873 ft | 438 kts | 68° |
| 2026-05-05 04:46 | -4.41124 | 40.13967 | 26218 ft | 437 kts | 68° |
| 2026-05-05 04:47 | -4.39995 | 40.16789 | 25605 ft | 436 kts | 68° |
| 2026-05-05 04:47 | -4.38873 | 40.19604 | 24989 ft | 434 kts | 68° |
| 2026-05-05 04:47 | -4.37758 | 40.22409 | 24388 ft | 432 kts | 68° |
| 2026-05-05 04:47 | -4.36586 | 40.25172 | 23808 ft | 430 kts | 62° |
| 2026-05-05 04:48 | -4.34829 | 40.27561 | 23156 ft | 422 kts | 45° |
| 2026-05-05 04:48 | -4.32653 | 40.29459 | 22470 ft | 408 kts | 39° |
| 2026-05-05 04:48 | -4.30479 | 40.31171 | 21822 ft | 399 kts | 38° |
| 2026-05-05 04:48 | -4.28296 | 40.32869 | 21160 ft | 396 kts | 38° |
| 2026-05-05 04:49 | -4.26114 | 40.34567 | 20510 ft | 398 kts | 38° |
| 2026-05-05 04:49 | -4.23795 | 40.36075 | 19883 ft | 398 kts | 25° |
| 2026-05-05 04:49 | -4.21107 | 40.36866 | 19262 ft | 399 kts | 11° |
| 2026-05-05 04:49 | -4.18399 | 40.37251 | 18656 ft | 397 kts | 8° |
| 2026-05-05 04:50 | -4.15625 | 40.37599 | 18016 ft | 396 kts | 8° |
| 2026-05-05 04:50 | -4.12901 | 40.37941 | 17328 ft | 393 kts | 8° |
| 2026-05-05 04:50 | -4.10198 | 40.38281 | 16667 ft | 391 kts | 8° |
| 2026-05-05 04:50 | -4.07511 | 40.38638 | 16017 ft | 388 kts | 8° |
| 2026-05-05 04:51 | -4.04845 | 40.38998 | 15369 ft | 385 kts | 8° |
| 2026-05-05 04:51 | -4.02187 | 40.39108 | 14751 ft | 383 kts | 352° |
| 2026-05-05 04:51 | -3.99675 | 40.38284 | 14127 ft | 381 kts | 331° |
| 2026-05-05 04:51 | -3.97624 | 40.36646 | 13479 ft | 374 kts | 313° |
| 2026-05-05 04:52 | -3.96227 | 40.34549 | 12816 ft | 362 kts | 297° |
| 2026-05-05 04:52 | -3.95302 | 40.32244 | 12224 ft | 352 kts | 291° |
| 2026-05-05 04:52 | -3.94472 | 40.29909 | 11640 ft | 351 kts | 290° |
| 2026-05-05 04:52 | -3.93655 | 40.27634 | 11085 ft | 353 kts | 291° |
| 2026-05-05 04:53 | -3.92808 | 40.25323 | 10516 ft | 353 kts | 290° |
| 2026-05-05 04:53 | -3.91954 | 40.23027 | 9960 ft | 351 kts | 290° |
| 2026-05-05 04:53 | -3.91096 | 40.20743 | 9377 ft | 350 kts | 290° |
| 2026-05-05 04:53 | -3.90241 | 40.18477 | 8858 ft | 346 kts | 290° |
| 2026-05-05 04:54 | -3.89395 | 40.16240 | 8368 ft | 341 kts | 290° |
| 2026-05-05 04:54 | -3.88558 | 40.14032 | 7884 ft | 337 kts | 290° |
| 2026-05-05 04:54 | -3.87730 | 40.11850 | 7414 ft | 333 kts | 289° |
| 2026-05-05 04:54 | -3.86911 | 40.09692 | 6951 ft | 330 kts | 289° |
| 2026-05-05 04:55 | -3.86105 | 40.07569 | 6610 ft | 323 kts | 289° |
| 2026-05-05 04:55 | -3.85316 | 40.05493 | 6282 ft | 315 kts | 288° |
| 2026-05-05 04:55 | -3.84544 | 40.03462 | 5948 ft | 309 kts | 288° |
| 2026-05-05 04:55 | -3.83788 | 40.01469 | 5609 ft | 303 kts | 288° |
| 2026-05-05 04:56 | -3.83047 | 39.99517 | 5327 ft | 296 kts | 288° |
| 2026-05-05 04:56 | -3.82322 | 39.97610 | 5062 ft | 289 kts | 288° |
| 2026-05-05 04:56 | -3.81615 | 39.95750 | 4804 ft | 283 kts | 288° |
| 2026-05-05 04:56 | -3.80917 | 39.93913 | 4532 ft | 282 kts | 288° |
| 2026-05-05 04:57 | -3.80221 | 39.92080 | 4263 ft | 281 kts | 288° |
| 2026-05-05 04:57 | -3.79531 | 39.90261 | 3989 ft | 278 kts | 288° |
| 2026-05-05 04:57 | -3.78851 | 39.88475 | 3749 ft | 268 kts | 288° |
| 2026-05-05 04:57 | -3.78208 | 39.86795 | 3631 ft | 249 kts | 287° |
| 2026-05-05 04:58 | -3.77601 | 39.85200 | 3515 ft | 244 kts | 287° |
| 2026-05-05 04:58 | -3.76997 | 39.83608 | 3372 ft | 245 kts | 287° |
| 2026-05-05 04:58 | -3.76394 | 39.82017 | 3230 ft | 244 kts | 287° |
| 2026-05-05 04:58 | -3.75792 | 39.80434 | 3086 ft | 243 kts | 287° |
| 2026-05-05 04:59 | -3.75194 | 39.78858 | 2966 ft | 242 kts | 286° |
| 2026-05-05 04:59 | -3.74882 | 39.77244 | 2865 ft | 233 kts | 262° |
| 2026-05-05 04:59 | -3.75285 | 39.75720 | 2775 ft | 224 kts | 236° |
| 2026-05-05 04:59 | -3.76346 | 39.74633 | 2714 ft | 218 kts | 212° |
| 2026-05-05 05:00 | -3.77637 | 39.73847 | 2679 ft | 216 kts | 206° |
| 2026-05-05 05:00 | -3.78952 | 39.73123 | 2642 ft | 216 kts | 206° |
| 2026-05-05 05:00 | -3.79826 | 39.72646 | 2600 ft | 216 kts | 206° |
| 2026-05-05 05:00 | -3.81144 | 39.71922 | 2544 ft | 215 kts | 207° |
| 2026-05-05 05:01 | -3.82451 | 39.71198 | 2490 ft | 215 kts | 207° |
| 2026-05-05 05:01 | -3.83761 | 39.70470 | 2445 ft | 216 kts | 206° |
| 2026-05-05 05:01 | -3.85083 | 39.69759 | 2403 ft | 216 kts | 207° |
| 2026-05-05 05:01 | -3.86819 | 39.68794 | 2337 ft | 216 kts | 207° |
| 2026-05-05 05:02 | -3.88125 | 39.68057 | 2289 ft | 216 kts | 208° |
| 2026-05-05 05:02 | -3.89428 | 39.67321 | 2251 ft | 213 kts | 208° |
| 2026-05-05 05:02 | -3.90278 | 39.66840 | 2204 ft | 203 kts | 208° |
| 2026-05-05 05:02 | -3.91431 | 39.66189 | 2206 ft | 176 kts | 207° |
| 2026-05-05 05:03 | -3.92423 | 39.65629 | 2155 ft | 155 kts | 207° |
| 2026-05-05 05:03 | -3.93335 | 39.65121 | 1973 ft | 146 kts | 207° |
| 2026-05-05 05:03 | -3.94196 | 39.64639 | 1771 ft | 142 kts | 208° |
| 2026-05-05 05:03 | -3.95051 | 39.64158 | 1581 ft | 140 kts | 207° |
| 2026-05-05 05:04 | -3.95895 | 39.63684 | 1398 ft | 138 kts | 207° |
| 2026-05-05 05:04 | -3.96717 | 39.63223 | 1232 ft | 134 kts | 208° |
| 2026-05-05 05:04 | -3.97525 | 39.62768 | 1060 ft | 132 kts | 208° |
| 2026-05-05 05:04 | -3.98334 | 39.62313 | 908 ft | 134 kts | 208° |
| 2026-05-05 05:05 | -3.99139 | 39.61863 | 748 ft | 133 kts | 210° |
| 2026-05-05 05:05 | -3.99949 | 39.61412 | 623 ft | 133 kts | 211° |
| 2026-05-05 05:05 | -4.00754 | 39.60957 | 390 ft | 133 kts | 209° |
| 2026-05-05 05:05 | -4.01558 | 39.60510 | 221 ft | 130 kts | 210° |
| 2026-05-05 05:06 | -4.02210 | 39.60142 | 220 ft | 82 kts | 209° |
| 2026-05-05 05:06 | -4.02641 | 39.59899 | 218 ft | 50 kts | 209° |
| 2026-05-05 05:06 | -4.02933 | 39.59738 | 219 ft | 46 kts | 209° |
| 2026-05-05 05:06 | -4.03181 | 39.59600 | 218 ft | 37 kts | 209° |
| 2026-05-05 05:07 | -4.03309 | 39.59545 | 216 ft | 10 kts | 169° |
| 2026-05-05 05:07 | -4.03329 | 39.59585 | 219 ft | 12 kts | 87° |
| 2026-05-05 05:07 | -4.03328 | 39.59679 | 218 ft | 14 kts | 90° |
| 2026-05-05 05:07 | -4.03326 | 39.59786 | 216 ft | 17 kts | 88° |
| 2026-05-05 05:08 | -4.03325 | 39.59903 | 217 ft | 16 kts | 91° |
| 2026-05-05 05:08 | -4.03325 | 39.60008 | 217 ft | 11 kts | 88° |
| 2026-05-05 05:08 | -4.03276 | 39.60069 | 219 ft | 12 kts | 29° |
| 2026-05-05 05:08 | -4.03198 | 39.60114 | 212 ft | 11 kts | 34° |
| 2026-05-05 05:09 | -4.03187 | 39.60148 | 215 ft | 5 kts | 92° |
| 2026-05-05 05:09 | -4.03198 | 39.60182 | 216 ft | 4 kts | 115° |
| 2026-05-05 05:09 | -4.03204 | 39.60196 | 210 ft | 2 kts | 116° |
| 2026-05-05 05:09 | -4.03206 | 39.60200 | 214 ft | 0 kts | 117° |